<?xml version='1.0' encoding='UTF-8'?><gpx version="1.1" creator="JPX - https://github.com/jenetics/jpx" xmlns="http://www.topografix.com/GPX/1/1"><trk><trkseg><trkpt lat="44.4577974" lon="11.4206051"><ele>72.0</ele><time>2026-04-18T14:05:44.763Z</time></trkpt><trkpt lat="44.4577252" lon="11.4206323"><ele>72.0</ele><time>2026-04-18T14:05:45.762Z</time></trkpt><trkpt lat="44.4576424" lon="11.4206773"><ele>72.0</ele><time>2026-04-18T14:05:46.762Z</time></trkpt><trkpt lat="44.4575516" lon="11.4207359"><ele>72.0</ele><time>2026-04-18T14:05:47.762Z</time></trkpt><trkpt lat="44.4574509" lon="11.4208025"><ele>72.0</ele><time>2026-04-18T14:05:48.762Z</time></trkpt><trkpt lat="44.4573431" lon="11.4208813"><ele>72.0</ele><time>2026-04-18T14:05:49.762Z</time></trkpt><trkpt lat="44.4572327" lon="11.4209705"><ele>72.0</ele><time>2026-04-18T14:05:50.762Z</time></trkpt><trkpt lat="44.457112" lon="11.4210649"><ele>72.0</ele><time>2026-04-18T14:05:51.762Z</time></trkpt><trkpt lat="44.4569957" lon="11.421173"><ele>72.0</ele><time>2026-04-18T14:05:52.761Z</time></trkpt><trkpt lat="44.4568767" lon="11.4212816"><ele>71.66666666666667</ele><time>2026-04-18T14:05:53.762Z</time></trkpt><trkpt lat="44.4567566" lon="11.4213921"><ele>71.33333333333334</ele><time>2026-04-18T14:05:54.761Z</time></trkpt><trkpt lat="44.4566315" lon="11.4215038"><ele>71.0</ele><time>2026-04-18T14:05:55.762Z</time></trkpt><trkpt lat="44.4564996" lon="11.4216284"><ele>71.0</ele><time>2026-04-18T14:05:56.762Z</time></trkpt><trkpt lat="44.4563682" lon="11.4217506"><ele>71.0</ele><time>2026-04-18T14:05:57.761Z</time></trkpt><trkpt lat="44.4562507" lon="11.4218633"><ele>71.0</ele><time>2026-04-18T14:05:58.762Z</time></trkpt><trkpt lat="44.4561521" lon="11.4219754"><ele>71.0</ele><time>2026-04-18T14:05:59.761Z</time></trkpt><trkpt lat="44.4560602" lon="11.4220847"><ele>70.5</ele><time>2026-04-18T14:06:00.762Z</time></trkpt><trkpt lat="44.4559803" lon="11.4221925"><ele>70.0</ele><time>2026-04-18T14:06:01.762Z</time></trkpt><trkpt lat="44.4558929" lon="11.4223008"><ele>69.5</ele><time>2026-04-18T14:06:02.762Z</time></trkpt><trkpt lat="44.4558007" lon="11.4224024"><ele>69.0</ele><time>2026-04-18T14:06:03.762Z</time></trkpt><trkpt lat="44.4557124" lon="11.4225038"><ele>69.0</ele><time>2026-04-18T14:06:04.762Z</time></trkpt><trkpt lat="44.4556178" lon="11.422582"><ele>69.0</ele><time>2026-04-18T14:06:05.762Z</time></trkpt><trkpt lat="44.4555106" lon="11.4226079"><ele>69.0</ele><time>2026-04-18T14:06:06.762Z</time></trkpt><trkpt lat="44.4553974" lon="11.4225913"><ele>69.0</ele><time>2026-04-18T14:06:07.762Z</time></trkpt><trkpt lat="44.4552832" lon="11.4225885"><ele>69.0</ele><time>2026-04-18T14:06:08.761Z</time></trkpt><trkpt lat="44.4551864" lon="11.4226556"><ele>69.2</ele><time>2026-04-18T14:06:09.762Z</time></trkpt><trkpt lat="44.455116" lon="11.4227555"><ele>69.4</ele><time>2026-04-18T14:06:10.761Z</time></trkpt><trkpt lat="44.4550648" lon="11.4228804"><ele>69.6</ele><time>2026-04-18T14:06:11.762Z</time></trkpt><trkpt lat="44.455032" lon="11.4230225"><ele>69.8</ele><time>2026-04-18T14:06:12.761Z</time></trkpt><trkpt lat="44.4549892" lon="11.4231546"><ele>70.0</ele><time>2026-04-18T14:06:13.761Z</time></trkpt><trkpt lat="44.4549298" lon="11.4232646"><ele>70.0</ele><time>2026-04-18T14:06:14.762Z</time></trkpt><trkpt lat="44.4548418" lon="11.4233556"><ele>70.0</ele><time>2026-04-18T14:06:15.762Z</time></trkpt><trkpt lat="44.4547354" lon="11.4234399"><ele>70.0</ele><time>2026-04-18T14:06:16.762Z</time></trkpt><trkpt lat="44.4546282" lon="11.4235446"><ele>70.0</ele><time>2026-04-18T14:06:17.762Z</time></trkpt><trkpt lat="44.4545229" lon="11.4236403"><ele>71.0</ele><time>2026-04-18T14:06:18.761Z</time></trkpt><trkpt lat="44.4544193" lon="11.4237415"><ele>72.0</ele><time>2026-04-18T14:06:19.762Z</time></trkpt><trkpt lat="44.4543164" lon="11.4238385"><ele>73.0</ele><time>2026-04-18T14:06:20.762Z</time></trkpt><trkpt lat="44.454214" lon="11.4239322"><ele>74.0</ele><time>2026-04-18T14:06:21.761Z</time></trkpt><trkpt lat="44.4541101" lon="11.4240279"><ele>74.25</ele><time>2026-04-18T14:06:22.761Z</time></trkpt><trkpt lat="44.4540108" lon="11.4241218"><ele>74.5</ele><time>2026-04-18T14:06:23.761Z</time></trkpt><trkpt lat="44.4539126" lon="11.4242122"><ele>74.75</ele><time>2026-04-18T14:06:24.762Z</time></trkpt><trkpt lat="44.4538179" lon="11.4243043"><ele>75.0</ele><time>2026-04-18T14:06:25.761Z</time></trkpt><trkpt lat="44.4537218" lon="11.4243935"><ele>74.75</ele><time>2026-04-18T14:06:26.762Z</time></trkpt><trkpt lat="44.4536166" lon="11.4244836"><ele>74.5</ele><time>2026-04-18T14:06:27.762Z</time></trkpt><trkpt lat="44.4535036" lon="11.424582"><ele>74.25</ele><time>2026-04-18T14:06:28.762Z</time></trkpt><trkpt lat="44.4533837" lon="11.4246857"><ele>74.0</ele><time>2026-04-18T14:06:29.762Z</time></trkpt><trkpt lat="44.4532511" lon="11.424792"><ele>74.0</ele><time>2026-04-18T14:06:30.762Z</time></trkpt><trkpt lat="44.4531142" lon="11.4248927"><ele>74.0</ele><time>2026-04-18T14:06:31.761Z</time></trkpt><trkpt lat="44.4529604" lon="11.4249829"><ele>74.0</ele><time>2026-04-18T14:06:32.761Z</time></trkpt><trkpt lat="44.4528055" lon="11.4250665"><ele>74.66666666666667</ele><time>2026-04-18T14:06:33.762Z</time></trkpt><trkpt lat="44.4526532" lon="11.4251351"><ele>75.33333333333333</ele><time>2026-04-18T14:06:34.761Z</time></trkpt><trkpt lat="44.4524963" lon="11.4252061"><ele>76.0</ele><time>2026-04-18T14:06:35.761Z</time></trkpt><trkpt lat="44.4523386" lon="11.4252757"><ele>76.0</ele><time>2026-04-18T14:06:36.761Z</time></trkpt><trkpt lat="44.4521862" lon="11.425348"><ele>76.0</ele><time>2026-04-18T14:06:37.761Z</time></trkpt><trkpt lat="44.4520463" lon="11.425415"><ele>76.0</ele><time>2026-04-18T14:06:38.761Z</time></trkpt><trkpt lat="44.4519171" lon="11.4254787"><ele>76.0</ele><time>2026-04-18T14:06:39.762Z</time></trkpt><trkpt lat="44.4517941" lon="11.425545"><ele>76.5</ele><time>2026-04-18T14:06:40.762Z</time></trkpt><trkpt lat="44.4516699" lon="11.4256176"><ele>77.0</ele><time>2026-04-18T14:06:41.761Z</time></trkpt><trkpt lat="44.4515454" lon="11.4256991"><ele>77.5</ele><time>2026-04-18T14:06:42.762Z</time></trkpt><trkpt lat="44.4514096" lon="11.425801"><ele>78.0</ele><time>2026-04-18T14:06:43.762Z</time></trkpt><trkpt lat="44.4512681" lon="11.4259168"><ele>78.33333333333333</ele><time>2026-04-18T14:06:44.761Z</time></trkpt><trkpt lat="44.4511312" lon="11.426034"><ele>78.66666666666666</ele><time>2026-04-18T14:06:45.762Z</time></trkpt><trkpt lat="44.4509917" lon="11.4261698"><ele>79.0</ele><time>2026-04-18T14:06:46.761Z</time></trkpt><trkpt lat="44.4508568" lon="11.4263179"><ele>78.66666666666666</ele><time>2026-04-18T14:06:47.761Z</time></trkpt><trkpt lat="44.4507234" lon="11.426465"><ele>78.33333333333333</ele><time>2026-04-18T14:06:48.762Z</time></trkpt><trkpt lat="44.4505908" lon="11.4266143"><ele>78.0</ele><time>2026-04-18T14:06:49.761Z</time></trkpt><trkpt lat="44.4504578" lon="11.4267599"><ele>78.0</ele><time>2026-04-18T14:06:50.762Z</time></trkpt><trkpt lat="44.4503254" lon="11.4269058"><ele>78.0</ele><time>2026-04-18T14:06:51.761Z</time></trkpt><trkpt lat="44.4501971" lon="11.4270473"><ele>78.0</ele><time>2026-04-18T14:06:52.761Z</time></trkpt><trkpt lat="44.4500665" lon="11.4271889"><ele>77.0</ele><time>2026-04-18T14:06:53.762Z</time></trkpt><trkpt lat="44.4499342" lon="11.4273327"><ele>76.0</ele><time>2026-04-18T14:06:54.762Z</time></trkpt><trkpt lat="44.4498042" lon="11.4274757"><ele>75.0</ele><time>2026-04-18T14:06:55.762Z</time></trkpt><trkpt lat="44.4496794" lon="11.4276142"><ele>74.5</ele><time>2026-04-18T14:06:56.761Z</time></trkpt><trkpt lat="44.4495662" lon="11.427744"><ele>74.0</ele><time>2026-04-18T14:06:57.762Z</time></trkpt><trkpt lat="44.4494629" lon="11.4278869"><ele>73.5</ele><time>2026-04-18T14:06:58.762Z</time></trkpt><trkpt lat="44.4493808" lon="11.4280463"><ele>73.0</ele><time>2026-04-18T14:06:59.761Z</time></trkpt><trkpt lat="44.4493132" lon="11.4282377"><ele>73.0</ele><time>2026-04-18T14:07:00.762Z</time></trkpt><trkpt lat="44.4492507" lon="11.4284445"><ele>73.0</ele><time>2026-04-18T14:07:01.762Z</time></trkpt><trkpt lat="44.4491902" lon="11.4286728"><ele>73.0</ele><time>2026-04-18T14:07:02.762Z</time></trkpt><trkpt lat="44.4491334" lon="11.4289083"><ele>72.66666666666666</ele><time>2026-04-18T14:07:03.762Z</time></trkpt><trkpt lat="44.4490731" lon="11.4291497"><ele>72.33333333333333</ele><time>2026-04-18T14:07:04.762Z</time></trkpt><trkpt lat="44.4490175" lon="11.4293714"><ele>72.0</ele><time>2026-04-18T14:07:05.762Z</time></trkpt><trkpt lat="44.4489623" lon="11.4295741"><ele>71.25</ele><time>2026-04-18T14:07:06.762Z</time></trkpt><trkpt lat="44.4489117" lon="11.4297659"><ele>70.5</ele><time>2026-04-18T14:07:07.761Z</time></trkpt><trkpt lat="44.4488636" lon="11.4299512"><ele>69.75</ele><time>2026-04-18T14:07:08.761Z</time></trkpt><trkpt lat="44.4488193" lon="11.4301295"><ele>69.0</ele><time>2026-04-18T14:07:09.762Z</time></trkpt><trkpt lat="44.4487752" lon="11.4303049"><ele>68.75</ele><time>2026-04-18T14:07:10.762Z</time></trkpt><trkpt lat="44.4487309" lon="11.4304854"><ele>68.5</ele><time>2026-04-18T14:07:11.761Z</time></trkpt><trkpt lat="44.4486838" lon="11.4306636"><ele>68.25</ele><time>2026-04-18T14:07:12.762Z</time></trkpt><trkpt lat="44.4486409" lon="11.4308348"><ele>68.0</ele><time>2026-04-18T14:07:13.762Z</time></trkpt><trkpt lat="44.4486021" lon="11.4309894"><ele>68.0</ele><time>2026-04-18T14:07:14.762Z</time></trkpt><trkpt lat="44.4485657" lon="11.4311292"><ele>68.0</ele><time>2026-04-18T14:07:15.761Z</time></trkpt><trkpt lat="44.4485334" lon="11.4312532"><ele>68.0</ele><time>2026-04-18T14:07:16.761Z</time></trkpt><trkpt lat="44.4484996" lon="11.4313732"><ele>68.0</ele><time>2026-04-18T14:07:17.761Z</time></trkpt><trkpt lat="44.4484731" lon="11.4314693"><ele>68.0</ele><time>2026-04-18T14:07:18.761Z</time></trkpt><trkpt lat="44.4484489" lon="11.4315642"><ele>68.0</ele><time>2026-04-18T14:07:19.762Z</time></trkpt><trkpt lat="44.4484266" lon="11.4316526"><ele>68.0</ele><time>2026-04-18T14:07:20.761Z</time></trkpt><trkpt lat="44.4483885" lon="11.4318099"><ele>68.0</ele><time>2026-04-18T14:07:22.761Z</time></trkpt><trkpt lat="44.4483559" lon="11.4319273"><ele>68.0</ele><time>2026-04-18T14:07:24.762Z</time></trkpt><trkpt lat="44.4483308" lon="11.432029"><ele>68.0</ele><time>2026-04-18T14:07:27.761Z</time></trkpt><trkpt lat="44.4483066" lon="11.432116"><ele>68.0</ele><time>2026-04-18T14:07:48.761Z</time></trkpt><trkpt lat="44.4482546" lon="11.4322755"><ele>68.0</ele><time>2026-04-18T14:07:50.762Z</time></trkpt><trkpt lat="44.4482012" lon="11.4323403"><ele>68.0</ele><time>2026-04-18T14:07:51.761Z</time></trkpt><trkpt lat="44.4481297" lon="11.4323701"><ele>68.0</ele><time>2026-04-18T14:07:52.761Z</time></trkpt><trkpt lat="44.4480412" lon="11.4323719"><ele>68.0</ele><time>2026-04-18T14:07:53.761Z</time></trkpt><trkpt lat="44.4479379" lon="11.4323719"><ele>68.0</ele><time>2026-04-18T14:07:54.761Z</time></trkpt><trkpt lat="44.4478297" lon="11.4323747"><ele>68.0</ele><time>2026-04-18T14:07:55.761Z</time></trkpt><trkpt lat="44.4477111" lon="11.4323734"><ele>68.2</ele><time>2026-04-18T14:07:56.762Z</time></trkpt><trkpt lat="44.4475987" lon="11.4323764"><ele>68.4</ele><time>2026-04-18T14:07:57.761Z</time></trkpt><trkpt lat="44.4475026" lon="11.4324004"><ele>68.60000000000001</ele><time>2026-04-18T14:07:58.762Z</time></trkpt><trkpt lat="44.4474217" lon="11.4324821"><ele>68.8</ele><time>2026-04-18T14:07:59.762Z</time></trkpt><trkpt lat="44.4473461" lon="11.43259"><ele>69.0</ele><time>2026-04-18T14:08:00.761Z</time></trkpt><trkpt lat="44.4472835" lon="11.4327326"><ele>69.0</ele><time>2026-04-18T14:08:01.762Z</time></trkpt><trkpt lat="44.4472431" lon="11.4329073"><ele>69.0</ele><time>2026-04-18T14:08:02.762Z</time></trkpt><trkpt lat="44.4472044" lon="11.4330909"><ele>69.0</ele><time>2026-04-18T14:08:03.762Z</time></trkpt><trkpt lat="44.4471587" lon="11.4332767"><ele>69.0</ele><time>2026-04-18T14:08:04.762Z</time></trkpt><trkpt lat="44.4471043" lon="11.4334613"><ele>69.25</ele><time>2026-04-18T14:08:05.761Z</time></trkpt><trkpt lat="44.4470563" lon="11.4336387"><ele>69.5</ele><time>2026-04-18T14:08:06.762Z</time></trkpt><trkpt lat="44.4470101" lon="11.4337997"><ele>69.75</ele><time>2026-04-18T14:08:07.762Z</time></trkpt><trkpt lat="44.4469675" lon="11.433957"><ele>70.0</ele><time>2026-04-18T14:08:08.762Z</time></trkpt><trkpt lat="44.4469277" lon="11.4341275"><ele>69.5</ele><time>2026-04-18T14:08:09.761Z</time></trkpt><trkpt lat="44.4468839" lon="11.434294"><ele>69.0</ele><time>2026-04-18T14:08:10.761Z</time></trkpt><trkpt lat="44.4468345" lon="11.4344621"><ele>68.5</ele><time>2026-04-18T14:08:11.761Z</time></trkpt><trkpt lat="44.4467842" lon="11.4346222"><ele>68.0</ele><time>2026-04-18T14:08:12.762Z</time></trkpt><trkpt lat="44.4467344" lon="11.4347733"><ele>67.6</ele><time>2026-04-18T14:08:13.761Z</time></trkpt><trkpt lat="44.4466723" lon="11.4349232"><ele>67.19999999999999</ele><time>2026-04-18T14:08:14.761Z</time></trkpt><trkpt lat="44.4466066" lon="11.4350506"><ele>66.8</ele><time>2026-04-18T14:08:15.762Z</time></trkpt><trkpt lat="44.446529" lon="11.4351585"><ele>66.39999999999999</ele><time>2026-04-18T14:08:16.761Z</time></trkpt><trkpt lat="44.4464581" lon="11.4352259"><ele>66.0</ele><time>2026-04-18T14:08:17.761Z</time></trkpt><trkpt lat="44.4463887" lon="11.4352591"><ele>66.0</ele><time>2026-04-18T14:08:18.762Z</time></trkpt><trkpt lat="44.4463217" lon="11.4352427"><ele>66.0</ele><time>2026-04-18T14:08:19.761Z</time></trkpt><trkpt lat="44.4462566" lon="11.4351942"><ele>66.0</ele><time>2026-04-18T14:08:20.761Z</time></trkpt><trkpt lat="44.4461839" lon="11.435127"><ele>66.0</ele><time>2026-04-18T14:08:21.762Z</time></trkpt><trkpt lat="44.4460872" lon="11.4350649"><ele>66.0</ele><time>2026-04-18T14:08:22.761Z</time></trkpt><trkpt lat="44.4460091" lon="11.4350089"><ele>66.0</ele><time>2026-04-18T14:08:23.762Z</time></trkpt><trkpt lat="44.4459321" lon="11.4349752"><ele>66.33333333333333</ele><time>2026-04-18T14:08:24.762Z</time></trkpt><trkpt lat="44.4458516" lon="11.4349583"><ele>66.66666666666667</ele><time>2026-04-18T14:08:25.761Z</time></trkpt><trkpt lat="44.4457699" lon="11.4349645"><ele>67.0</ele><time>2026-04-18T14:08:26.762Z</time></trkpt><trkpt lat="44.4456857" lon="11.4349803"><ele>67.33333333333334</ele><time>2026-04-18T14:08:27.761Z</time></trkpt><trkpt lat="44.445604" lon="11.4349827"><ele>67.66666666666667</ele><time>2026-04-18T14:08:28.762Z</time></trkpt><trkpt lat="44.4455311" lon="11.4349691"><ele>68.0</ele><time>2026-04-18T14:08:29.761Z</time></trkpt><trkpt lat="44.445475" lon="11.4349267"><ele>67.6</ele><time>2026-04-18T14:08:30.762Z</time></trkpt><trkpt lat="44.4454326" lon="11.4348458"><ele>67.19999999999999</ele><time>2026-04-18T14:08:31.762Z</time></trkpt><trkpt lat="44.4454232" lon="11.4347036"><ele>66.8</ele><time>2026-04-18T14:08:32.762Z</time></trkpt><trkpt lat="44.4453966" lon="11.434533"><ele>66.39999999999999</ele><time>2026-04-18T14:08:33.762Z</time></trkpt><trkpt lat="44.4453666" lon="11.434346"><ele>66.0</ele><time>2026-04-18T14:08:34.762Z</time></trkpt><trkpt lat="44.4453338" lon="11.4341601"><ele>66.0</ele><time>2026-04-18T14:08:35.761Z</time></trkpt><trkpt lat="44.4453031" lon="11.4339953"><ele>66.0</ele><time>2026-04-18T14:08:36.762Z</time></trkpt><trkpt lat="44.4452612" lon="11.4338547"><ele>66.0</ele><time>2026-04-18T14:08:37.761Z</time></trkpt><trkpt lat="44.4451843" lon="11.4337601"><ele>66.0</ele><time>2026-04-18T14:08:38.761Z</time></trkpt><trkpt lat="44.4450737" lon="11.4336751"><ele>67.0</ele><time>2026-04-18T14:08:39.762Z</time></trkpt><trkpt lat="44.4449403" lon="11.4336107"><ele>68.0</ele><time>2026-04-18T14:08:40.761Z</time></trkpt><trkpt lat="44.4448025" lon="11.4335424"><ele>69.0</ele><time>2026-04-18T14:08:41.761Z</time></trkpt><trkpt lat="44.4446491" lon="11.4334563"><ele>70.75</ele><time>2026-04-18T14:08:42.762Z</time></trkpt><trkpt lat="44.4445068" lon="11.4333768"><ele>72.5</ele><time>2026-04-18T14:08:43.761Z</time></trkpt><trkpt lat="44.4443774" lon="11.4333132"><ele>74.25</ele><time>2026-04-18T14:08:44.762Z</time></trkpt><trkpt lat="44.4442652" lon="11.4332914"><ele>76.0</ele><time>2026-04-18T14:08:45.761Z</time></trkpt><trkpt lat="44.4441688" lon="11.4333318"><ele>76.0</ele><time>2026-04-18T14:08:46.762Z</time></trkpt><trkpt lat="44.4440509" lon="11.4334007"><ele>76.0</ele><time>2026-04-18T14:08:47.761Z</time></trkpt><trkpt lat="44.4439378" lon="11.4335094"><ele>76.0</ele><time>2026-04-18T14:08:48.761Z</time></trkpt><trkpt lat="44.4438222" lon="11.433636"><ele>76.0</ele><time>2026-04-18T14:08:49.761Z</time></trkpt><trkpt lat="44.4436949" lon="11.433767"><ele>77.0</ele><time>2026-04-18T14:08:50.762Z</time></trkpt><trkpt lat="44.4435581" lon="11.4338597"><ele>78.0</ele><time>2026-04-18T14:08:51.762Z</time></trkpt><trkpt lat="44.4434279" lon="11.4339321"><ele>79.0</ele><time>2026-04-18T14:08:52.762Z</time></trkpt><trkpt lat="44.4433155" lon="11.4339847"><ele>80.0</ele><time>2026-04-18T14:08:53.762Z</time></trkpt><trkpt lat="44.4432279" lon="11.4340699"><ele>80.0</ele><time>2026-04-18T14:08:54.762Z</time></trkpt><trkpt lat="44.4431545" lon="11.4341802"><ele>80.0</ele><time>2026-04-18T14:08:55.762Z</time></trkpt><trkpt lat="44.4431063" lon="11.4343182"><ele>80.0</ele><time>2026-04-18T14:08:56.761Z</time></trkpt><trkpt lat="44.4430688" lon="11.4344643"><ele>80.0</ele><time>2026-04-18T14:08:57.762Z</time></trkpt><trkpt lat="44.4430307" lon="11.4345858"><ele>80.0</ele><time>2026-04-18T14:08:58.762Z</time></trkpt><trkpt lat="44.4429982" lon="11.4346618"><ele>81.0</ele><time>2026-04-18T14:08:59.761Z</time></trkpt><trkpt lat="44.4428911" lon="11.4347264"><ele>82.0</ele><time>2026-04-18T14:09:01.762Z</time></trkpt><trkpt lat="44.4427541" lon="11.434672"><ele>83.0</ele><time>2026-04-18T14:09:03.762Z</time></trkpt><trkpt lat="44.4426621" lon="11.4346112"><ele>84.0</ele><time>2026-04-18T14:09:04.762Z</time></trkpt><trkpt lat="44.4425589" lon="11.4345436"><ele>84.0</ele><time>2026-04-18T14:09:05.761Z</time></trkpt><trkpt lat="44.4424425" lon="11.434476"><ele>84.0</ele><time>2026-04-18T14:09:06.762Z</time></trkpt><trkpt lat="44.4423235" lon="11.4344093"><ele>84.0</ele><time>2026-04-18T14:09:07.762Z</time></trkpt><trkpt lat="44.4421955" lon="11.4343481"><ele>84.0</ele><time>2026-04-18T14:09:08.762Z</time></trkpt><trkpt lat="44.4420581" lon="11.4343038"><ele>85.5</ele><time>2026-04-18T14:09:09.761Z</time></trkpt><trkpt lat="44.4419183" lon="11.4342646"><ele>87.0</ele><time>2026-04-18T14:09:10.762Z</time></trkpt><trkpt lat="44.4417689" lon="11.4342381"><ele>88.5</ele><time>2026-04-18T14:09:11.762Z</time></trkpt><trkpt lat="44.4416319" lon="11.4342032"><ele>90.0</ele><time>2026-04-18T14:09:12.761Z</time></trkpt><trkpt lat="44.4415223" lon="11.4341602"><ele>90.0</ele><time>2026-04-18T14:09:13.762Z</time></trkpt><trkpt lat="44.4414301" lon="11.434089"><ele>90.0</ele><time>2026-04-18T14:09:14.762Z</time></trkpt><trkpt lat="44.4413488" lon="11.4340015"><ele>90.0</ele><time>2026-04-18T14:09:15.761Z</time></trkpt><trkpt lat="44.4412553" lon="11.4339094"><ele>90.0</ele><time>2026-04-18T14:09:16.762Z</time></trkpt><trkpt lat="44.4411472" lon="11.4338229"><ele>90.0</ele><time>2026-04-18T14:09:17.761Z</time></trkpt><trkpt lat="44.4410408" lon="11.4337249"><ele>91.25</ele><time>2026-04-18T14:09:18.761Z</time></trkpt><trkpt lat="44.440929" lon="11.4336296"><ele>92.5</ele><time>2026-04-18T14:09:19.761Z</time></trkpt><trkpt lat="44.4408128" lon="11.4335262"><ele>93.75</ele><time>2026-04-18T14:09:20.761Z</time></trkpt><trkpt lat="44.4406861" lon="11.4334442"><ele>95.0</ele><time>2026-04-18T14:09:21.762Z</time></trkpt><trkpt lat="44.4405555" lon="11.4333526"><ele>94.0</ele><time>2026-04-18T14:09:22.761Z</time></trkpt><trkpt lat="44.4404274" lon="11.4332719"><ele>93.0</ele><time>2026-04-18T14:09:23.762Z</time></trkpt><trkpt lat="44.4403087" lon="11.4331969"><ele>92.0</ele><time>2026-04-18T14:09:24.762Z</time></trkpt><trkpt lat="44.4401941" lon="11.4331102"><ele>91.0</ele><time>2026-04-18T14:09:25.762Z</time></trkpt><trkpt lat="44.4400817" lon="11.4330008"><ele>91.75</ele><time>2026-04-18T14:09:26.761Z</time></trkpt><trkpt lat="44.4399699" lon="11.4328806"><ele>92.5</ele><time>2026-04-18T14:09:27.762Z</time></trkpt><trkpt lat="44.4398523" lon="11.4327666"><ele>93.25</ele><time>2026-04-18T14:09:28.762Z</time></trkpt><trkpt lat="44.4397329" lon="11.4326418"><ele>94.0</ele><time>2026-04-18T14:09:29.762Z</time></trkpt><trkpt lat="44.4396149" lon="11.432548"><ele>94.0</ele><time>2026-04-18T14:09:30.761Z</time></trkpt><trkpt lat="44.4394784" lon="11.4324548"><ele>94.0</ele><time>2026-04-18T14:09:31.762Z</time></trkpt><trkpt lat="44.4393268" lon="11.4323702"><ele>94.0</ele><time>2026-04-18T14:09:32.762Z</time></trkpt><trkpt lat="44.43918" lon="11.4322938"><ele>94.0</ele><time>2026-04-18T14:09:33.762Z</time></trkpt><trkpt lat="44.4390293" lon="11.4322116"><ele>94.0</ele><time>2026-04-18T14:09:34.761Z</time></trkpt><trkpt lat="44.4389022" lon="11.4321225"><ele>94.0</ele><time>2026-04-18T14:09:35.762Z</time></trkpt><trkpt lat="44.4387919" lon="11.4320199"><ele>94.0</ele><time>2026-04-18T14:09:36.762Z</time></trkpt><trkpt lat="44.4386827" lon="11.4319132"><ele>95.2</ele><time>2026-04-18T14:09:37.762Z</time></trkpt><trkpt lat="44.4385873" lon="11.4318228"><ele>96.4</ele><time>2026-04-18T14:09:38.761Z</time></trkpt><trkpt lat="44.4385083" lon="11.4317487"><ele>97.6</ele><time>2026-04-18T14:09:39.761Z</time></trkpt><trkpt lat="44.4384092" lon="11.431714"><ele>98.8</ele><time>2026-04-18T14:09:40.761Z</time></trkpt><trkpt lat="44.4382998" lon="11.4317026"><ele>100.0</ele><time>2026-04-18T14:09:41.761Z</time></trkpt><trkpt lat="44.4382029" lon="11.4316923"><ele>100.0</ele><time>2026-04-18T14:09:42.761Z</time></trkpt><trkpt lat="44.4380939" lon="11.4316678"><ele>100.0</ele><time>2026-04-18T14:09:43.761Z</time></trkpt><trkpt lat="44.4379776" lon="11.4316466"><ele>100.0</ele><time>2026-04-18T14:09:44.761Z</time></trkpt><trkpt lat="44.4378429" lon="11.4316246"><ele>100.0</ele><time>2026-04-18T14:09:45.76Z</time></trkpt><trkpt lat="44.4377043" lon="11.4316049"><ele>99.0</ele><time>2026-04-18T14:09:46.761Z</time></trkpt><trkpt lat="44.4375644" lon="11.4315891"><ele>98.0</ele><time>2026-04-18T14:09:47.761Z</time></trkpt><trkpt lat="44.4374244" lon="11.4315614"><ele>97.0</ele><time>2026-04-18T14:09:48.761Z</time></trkpt><trkpt lat="44.437291" lon="11.4315423"><ele>96.0</ele><time>2026-04-18T14:09:49.761Z</time></trkpt><trkpt lat="44.437172" lon="11.431527"><ele>95.6</ele><time>2026-04-18T14:09:50.762Z</time></trkpt><trkpt lat="44.4370549" lon="11.4315044"><ele>95.19999999999999</ele><time>2026-04-18T14:09:51.761Z</time></trkpt><trkpt lat="44.4369571" lon="11.4314775"><ele>94.80000000000001</ele><time>2026-04-18T14:09:52.761Z</time></trkpt><trkpt lat="44.4368755" lon="11.4314579"><ele>94.4</ele><time>2026-04-18T14:09:53.762Z</time></trkpt><trkpt lat="44.4368069" lon="11.431444"><ele>94.0</ele><time>2026-04-18T14:09:54.761Z</time></trkpt><trkpt lat="44.4367165" lon="11.4314384"><ele>94.0</ele><time>2026-04-18T14:09:55.761Z</time></trkpt><trkpt lat="44.4366222" lon="11.431441"><ele>94.0</ele><time>2026-04-18T14:09:56.761Z</time></trkpt><trkpt lat="44.4365308" lon="11.4314269"><ele>94.0</ele><time>2026-04-18T14:09:57.762Z</time></trkpt><trkpt lat="44.4364321" lon="11.431426"><ele>94.0</ele><time>2026-04-18T14:09:58.761Z</time></trkpt><trkpt lat="44.4363249" lon="11.4314245"><ele>94.0</ele><time>2026-04-18T14:09:59.762Z</time></trkpt><trkpt lat="44.4362202" lon="11.4314382"><ele>93.2</ele><time>2026-04-18T14:10:00.762Z</time></trkpt><trkpt lat="44.4361162" lon="11.4314408"><ele>92.4</ele><time>2026-04-18T14:10:01.762Z</time></trkpt><trkpt lat="44.4360145" lon="11.4314399"><ele>91.6</ele><time>2026-04-18T14:10:02.761Z</time></trkpt><trkpt lat="44.4359044" lon="11.4314382"><ele>90.8</ele><time>2026-04-18T14:10:03.762Z</time></trkpt><trkpt lat="44.435791" lon="11.4314265"><ele>90.0</ele><time>2026-04-18T14:10:04.761Z</time></trkpt><trkpt lat="44.435681" lon="11.4314312"><ele>90.0</ele><time>2026-04-18T14:10:05.762Z</time></trkpt><trkpt lat="44.4355668" lon="11.4314339"><ele>90.0</ele><time>2026-04-18T14:10:06.762Z</time></trkpt><trkpt lat="44.4354702" lon="11.4314421"><ele>90.0</ele><time>2026-04-18T14:10:07.761Z</time></trkpt><trkpt lat="44.4353766" lon="11.4314568"><ele>90.0</ele><time>2026-04-18T14:10:08.761Z</time></trkpt><trkpt lat="44.4352821" lon="11.4314764"><ele>90.0</ele><time>2026-04-18T14:10:09.762Z</time></trkpt><trkpt lat="44.4351906" lon="11.4314976"><ele>89.2</ele><time>2026-04-18T14:10:10.761Z</time></trkpt><trkpt lat="44.4350997" lon="11.4315231"><ele>88.4</ele><time>2026-04-18T14:10:11.761Z</time></trkpt><trkpt lat="44.4350121" lon="11.4315503"><ele>87.6</ele><time>2026-04-18T14:10:12.761Z</time></trkpt><trkpt lat="44.4349232" lon="11.431583"><ele>86.8</ele><time>2026-04-18T14:10:13.761Z</time></trkpt><trkpt lat="44.434824" lon="11.4316143"><ele>86.0</ele><time>2026-04-18T14:10:14.762Z</time></trkpt><trkpt lat="44.4347131" lon="11.4316399"><ele>84.5</ele><time>2026-04-18T14:10:15.762Z</time></trkpt><trkpt lat="44.4346025" lon="11.4316676"><ele>83.0</ele><time>2026-04-18T14:10:16.762Z</time></trkpt><trkpt lat="44.434481" lon="11.4316999"><ele>81.5</ele><time>2026-04-18T14:10:17.761Z</time></trkpt><trkpt lat="44.4343624" lon="11.4317277"><ele>80.0</ele><time>2026-04-18T14:10:18.762Z</time></trkpt><trkpt lat="44.4342534" lon="11.4317555"><ele>80.0</ele><time>2026-04-18T14:10:19.761Z</time></trkpt><trkpt lat="44.4341536" lon="11.4317873"><ele>80.0</ele><time>2026-04-18T14:10:20.762Z</time></trkpt><trkpt lat="44.4340555" lon="11.4318245"><ele>80.0</ele><time>2026-04-18T14:10:21.762Z</time></trkpt><trkpt lat="44.4339558" lon="11.4318637"><ele>80.0</ele><time>2026-04-18T14:10:22.762Z</time></trkpt><trkpt lat="44.4338588" lon="11.4319217"><ele>80.0</ele><time>2026-04-18T14:10:23.762Z</time></trkpt><trkpt lat="44.4337647" lon="11.4319735"><ele>79.2</ele><time>2026-04-18T14:10:24.761Z</time></trkpt><trkpt lat="44.4336765" lon="11.4320352"><ele>78.4</ele><time>2026-04-18T14:10:25.762Z</time></trkpt><trkpt lat="44.4335895" lon="11.4321053"><ele>77.6</ele><time>2026-04-18T14:10:26.761Z</time></trkpt><trkpt lat="44.4335008" lon="11.4321778"><ele>76.8</ele><time>2026-04-18T14:10:27.762Z</time></trkpt><trkpt lat="44.4334088" lon="11.4322584"><ele>76.0</ele><time>2026-04-18T14:10:28.761Z</time></trkpt><trkpt lat="44.4333206" lon="11.4323323"><ele>76.0</ele><time>2026-04-18T14:10:29.762Z</time></trkpt><trkpt lat="44.4332292" lon="11.432411"><ele>76.0</ele><time>2026-04-18T14:10:30.761Z</time></trkpt><trkpt lat="44.4331486" lon="11.4324882"><ele>76.0</ele><time>2026-04-18T14:10:31.762Z</time></trkpt><trkpt lat="44.4330673" lon="11.4325407"><ele>76.0</ele><time>2026-04-18T14:10:32.761Z</time></trkpt><trkpt lat="44.4329916" lon="11.4325667"><ele>76.0</ele><time>2026-04-18T14:10:33.762Z</time></trkpt><trkpt lat="44.4329129" lon="11.4325573"><ele>76.0</ele><time>2026-04-18T14:10:34.761Z</time></trkpt><trkpt lat="44.4328378" lon="11.4325231"><ele>76.0</ele><time>2026-04-18T14:10:35.761Z</time></trkpt><trkpt lat="44.4327402" lon="11.4324803"><ele>76.0</ele><time>2026-04-18T14:10:36.761Z</time></trkpt><trkpt lat="44.43263" lon="11.4324084"><ele>76.0</ele><time>2026-04-18T14:10:37.761Z</time></trkpt><trkpt lat="44.4324869" lon="11.4323143"><ele>76.0</ele><time>2026-04-18T14:10:38.76Z</time></trkpt><trkpt lat="44.4323214" lon="11.4322187"><ele>76.0</ele><time>2026-04-18T14:10:39.761Z</time></trkpt><trkpt lat="44.4321542" lon="11.4321194"><ele>76.0</ele><time>2026-04-18T14:10:40.76Z</time></trkpt><trkpt lat="44.4320055" lon="11.432023"><ele>77.0</ele><time>2026-04-18T14:10:41.761Z</time></trkpt><trkpt lat="44.4318655" lon="11.4319489"><ele>78.0</ele><time>2026-04-18T14:10:42.761Z</time></trkpt><trkpt lat="44.4317253" lon="11.431871"><ele>79.0</ele><time>2026-04-18T14:10:43.76Z</time></trkpt><trkpt lat="44.4315715" lon="11.4317807"><ele>79.0</ele><time>2026-04-18T14:10:44.76Z</time></trkpt><trkpt lat="44.4314172" lon="11.4316989"><ele>79.0</ele><time>2026-04-18T14:10:45.761Z</time></trkpt><trkpt lat="44.4312779" lon="11.4316246"><ele>79.0</ele><time>2026-04-18T14:10:46.76Z</time></trkpt><trkpt lat="44.431173" lon="11.4315614"><ele>79.0</ele><time>2026-04-18T14:10:47.76Z</time></trkpt><trkpt lat="44.4310743" lon="11.4315129"><ele>78.8</ele><time>2026-04-18T14:10:48.761Z</time></trkpt><trkpt lat="44.4309862" lon="11.4314575"><ele>78.60000000000001</ele><time>2026-04-18T14:10:49.761Z</time></trkpt><trkpt lat="44.4309041" lon="11.4314052"><ele>78.4</ele><time>2026-04-18T14:10:50.76Z</time></trkpt><trkpt lat="44.430839" lon="11.431363"><ele>78.2</ele><time>2026-04-18T14:10:51.761Z</time></trkpt><trkpt lat="44.4307186" lon="11.4312924"><ele>78.0</ele><time>2026-04-18T14:10:53.761Z</time></trkpt><trkpt lat="44.4306523" lon="11.431253"><ele>78.0</ele><time>2026-04-18T14:10:54.76Z</time></trkpt><trkpt lat="44.4305772" lon="11.4312193"><ele>78.0</ele><time>2026-04-18T14:10:55.76Z</time></trkpt><trkpt lat="44.4304997" lon="11.4311846"><ele>78.0</ele><time>2026-04-18T14:10:56.76Z</time></trkpt><trkpt lat="44.4304251" lon="11.4311524"><ele>78.0</ele><time>2026-04-18T14:10:57.76Z</time></trkpt><trkpt lat="44.4303545" lon="11.4311134"><ele>78.0</ele><time>2026-04-18T14:10:58.76Z</time></trkpt><trkpt lat="44.4302771" lon="11.4310674"><ele>78.0</ele><time>2026-04-18T14:10:59.76Z</time></trkpt><trkpt lat="44.4301985" lon="11.431027"><ele>78.0</ele><time>2026-04-18T14:11:00.76Z</time></trkpt><trkpt lat="44.4301229" lon="11.430986"><ele>78.0</ele><time>2026-04-18T14:11:01.761Z</time></trkpt><trkpt lat="44.4300414" lon="11.4309459"><ele>78.0</ele><time>2026-04-18T14:11:02.76Z</time></trkpt><trkpt lat="44.429963" lon="11.4308934"><ele>78.0</ele><time>2026-04-18T14:11:03.76Z</time></trkpt><trkpt lat="44.4298883" lon="11.4308346"><ele>78.0</ele><time>2026-04-18T14:11:04.76Z</time></trkpt><trkpt lat="44.4298124" lon="11.4307639"><ele>78.0</ele><time>2026-04-18T14:11:05.761Z</time></trkpt><trkpt lat="44.4297378" lon="11.4306792"><ele>78.0</ele><time>2026-04-18T14:11:06.761Z</time></trkpt><trkpt lat="44.4296595" lon="11.4305698"><ele>78.0</ele><time>2026-04-18T14:11:07.761Z</time></trkpt><trkpt lat="44.4295721" lon="11.4304461"><ele>78.0</ele><time>2026-04-18T14:11:08.76Z</time></trkpt><trkpt lat="44.4294891" lon="11.4302862"><ele>78.0</ele><time>2026-04-18T14:11:09.761Z</time></trkpt><trkpt lat="44.4293957" lon="11.4301058"><ele>78.33333333333333</ele><time>2026-04-18T14:11:10.76Z</time></trkpt><trkpt lat="44.4293044" lon="11.4299165"><ele>78.66666666666666</ele><time>2026-04-18T14:11:11.761Z</time></trkpt><trkpt lat="44.429212" lon="11.4297311"><ele>79.0</ele><time>2026-04-18T14:11:12.761Z</time></trkpt><trkpt lat="44.4291252" lon="11.4295575"><ele>81.0</ele><time>2026-04-18T14:11:13.76Z</time></trkpt><trkpt lat="44.4290478" lon="11.4293954"><ele>83.0</ele><time>2026-04-18T14:11:14.761Z</time></trkpt><trkpt lat="44.4289816" lon="11.4292415"><ele>85.0</ele><time>2026-04-18T14:11:15.761Z</time></trkpt><trkpt lat="44.4289122" lon="11.4291017"><ele>87.0</ele><time>2026-04-18T14:11:16.761Z</time></trkpt><trkpt lat="44.4288457" lon="11.428979"><ele>86.6</ele><time>2026-04-18T14:11:17.76Z</time></trkpt><trkpt lat="44.428781" lon="11.428858"><ele>86.19999999999999</ele><time>2026-04-18T14:11:18.76Z</time></trkpt><trkpt lat="44.4287158" lon="11.4287508"><ele>85.8</ele><time>2026-04-18T14:11:19.76Z</time></trkpt><trkpt lat="44.4286461" lon="11.4286469"><ele>85.4</ele><time>2026-04-18T14:11:20.761Z</time></trkpt><trkpt lat="44.4285757" lon="11.42854"><ele>85.0</ele><time>2026-04-18T14:11:21.761Z</time></trkpt><trkpt lat="44.428495" lon="11.4284304"><ele>85.0</ele><time>2026-04-18T14:11:22.76Z</time></trkpt><trkpt lat="44.4284101" lon="11.4283274"><ele>85.0</ele><time>2026-04-18T14:11:23.761Z</time></trkpt><trkpt lat="44.4283292" lon="11.4282381"><ele>85.0</ele><time>2026-04-18T14:11:24.761Z</time></trkpt><trkpt lat="44.4282458" lon="11.428149"><ele>85.0</ele><time>2026-04-18T14:11:25.76Z</time></trkpt><trkpt lat="44.4281609" lon="11.4280569"><ele>85.0</ele><time>2026-04-18T14:11:26.761Z</time></trkpt><trkpt lat="44.4280729" lon="11.4279641"><ele>85.5</ele><time>2026-04-18T14:11:27.761Z</time></trkpt><trkpt lat="44.4279912" lon="11.427877"><ele>86.0</ele><time>2026-04-18T14:11:28.761Z</time></trkpt><trkpt lat="44.4279168" lon="11.427795"><ele>86.5</ele><time>2026-04-18T14:11:29.76Z</time></trkpt><trkpt lat="44.4278497" lon="11.4277181"><ele>87.0</ele><time>2026-04-18T14:11:30.761Z</time></trkpt><trkpt lat="44.4277836" lon="11.427648"><ele>87.5</ele><time>2026-04-18T14:11:31.761Z</time></trkpt><trkpt lat="44.4277176" lon="11.4275899"><ele>88.0</ele><time>2026-04-18T14:11:32.761Z</time></trkpt><trkpt lat="44.4276407" lon="11.4275367"><ele>88.0</ele><time>2026-04-18T14:11:33.76Z</time></trkpt><trkpt lat="44.4275624" lon="11.4274933"><ele>88.0</ele><time>2026-04-18T14:11:34.761Z</time></trkpt><trkpt lat="44.4274771" lon="11.4274512"><ele>88.0</ele><time>2026-04-18T14:11:35.761Z</time></trkpt><trkpt lat="44.4273777" lon="11.4274138"><ele>88.0</ele><time>2026-04-18T14:11:36.761Z</time></trkpt><trkpt lat="44.4272641" lon="11.4273649"><ele>88.0</ele><time>2026-04-18T14:11:37.76Z</time></trkpt><trkpt lat="44.4271525" lon="11.4272995"><ele>87.0</ele><time>2026-04-18T14:11:38.76Z</time></trkpt><trkpt lat="44.427049" lon="11.4272475"><ele>86.0</ele><time>2026-04-18T14:11:39.76Z</time></trkpt><trkpt lat="44.4269564" lon="11.4271929"><ele>85.0</ele><time>2026-04-18T14:11:40.76Z</time></trkpt><trkpt lat="44.4268649" lon="11.4271273"><ele>84.0</ele><time>2026-04-18T14:11:41.761Z</time></trkpt><trkpt lat="44.4267688" lon="11.4270634"><ele>83.0</ele><time>2026-04-18T14:11:42.761Z</time></trkpt><trkpt lat="44.4266703" lon="11.4270038"><ele>83.0</ele><time>2026-04-18T14:11:43.76Z</time></trkpt><trkpt lat="44.4265738" lon="11.4269476"><ele>83.0</ele><time>2026-04-18T14:11:44.76Z</time></trkpt><trkpt lat="44.4264803" lon="11.4268965"><ele>83.0</ele><time>2026-04-18T14:11:45.76Z</time></trkpt><trkpt lat="44.4263879" lon="11.4268457"><ele>83.0</ele><time>2026-04-18T14:11:46.761Z</time></trkpt><trkpt lat="44.4263004" lon="11.4267921"><ele>83.0</ele><time>2026-04-18T14:11:47.761Z</time></trkpt><trkpt lat="44.4262083" lon="11.4267381"><ele>83.0</ele><time>2026-04-18T14:11:48.761Z</time></trkpt><trkpt lat="44.4261261" lon="11.4266857"><ele>83.0</ele><time>2026-04-18T14:11:49.761Z</time></trkpt><trkpt lat="44.4260483" lon="11.4266403"><ele>83.0</ele><time>2026-04-18T14:11:50.761Z</time></trkpt><trkpt lat="44.4259719" lon="11.4265925"><ele>83.0</ele><time>2026-04-18T14:11:51.761Z</time></trkpt><trkpt lat="44.4258882" lon="11.4265496"><ele>83.0</ele><time>2026-04-18T14:11:52.761Z</time></trkpt><trkpt lat="44.4258053" lon="11.4264976"><ele>83.0</ele><time>2026-04-18T14:11:53.761Z</time></trkpt><trkpt lat="44.4257252" lon="11.426457"><ele>83.0</ele><time>2026-04-18T14:11:54.76Z</time></trkpt><trkpt lat="44.4256419" lon="11.4264095"><ele>83.0</ele><time>2026-04-18T14:11:55.761Z</time></trkpt><trkpt lat="44.4255559" lon="11.4263569"><ele>83.0</ele><time>2026-04-18T14:11:56.76Z</time></trkpt><trkpt lat="44.4254679" lon="11.4262996"><ele>83.0</ele><time>2026-04-18T14:11:57.761Z</time></trkpt><trkpt lat="44.4253668" lon="11.4262492"><ele>83.0</ele><time>2026-04-18T14:11:58.76Z</time></trkpt><trkpt lat="44.4252618" lon="11.4261905"><ele>83.75</ele><time>2026-04-18T14:11:59.761Z</time></trkpt><trkpt lat="44.4251589" lon="11.426125"><ele>84.5</ele><time>2026-04-18T14:12:00.76Z</time></trkpt><trkpt lat="44.4250561" lon="11.4260542"><ele>85.25</ele><time>2026-04-18T14:12:01.76Z</time></trkpt><trkpt lat="44.4249469" lon="11.4259866"><ele>86.0</ele><time>2026-04-18T14:12:02.76Z</time></trkpt><trkpt lat="44.4248362" lon="11.4259277"><ele>86.0</ele><time>2026-04-18T14:12:03.761Z</time></trkpt><trkpt lat="44.4247301" lon="11.425872"><ele>86.0</ele><time>2026-04-18T14:12:04.76Z</time></trkpt><trkpt lat="44.4246298" lon="11.4258242"><ele>86.0</ele><time>2026-04-18T14:12:05.76Z</time></trkpt><trkpt lat="44.4245307" lon="11.4257753"><ele>86.0</ele><time>2026-04-18T14:12:06.761Z</time></trkpt><trkpt lat="44.424434" lon="11.4257185"><ele>86.0</ele><time>2026-04-18T14:12:07.76Z</time></trkpt><trkpt lat="44.4243322" lon="11.4256578"><ele>85.8</ele><time>2026-04-18T14:12:08.761Z</time></trkpt><trkpt lat="44.4242292" lon="11.4256082"><ele>85.6</ele><time>2026-04-18T14:12:09.761Z</time></trkpt><trkpt lat="44.4241253" lon="11.4255476"><ele>85.4</ele><time>2026-04-18T14:12:10.76Z</time></trkpt><trkpt lat="44.424019" lon="11.4254947"><ele>85.2</ele><time>2026-04-18T14:12:11.76Z</time></trkpt><trkpt lat="44.4239133" lon="11.42544"><ele>85.0</ele><time>2026-04-18T14:12:12.761Z</time></trkpt><trkpt lat="44.4238112" lon="11.4253816"><ele>85.0</ele><time>2026-04-18T14:12:13.76Z</time></trkpt><trkpt lat="44.4237048" lon="11.4253197"><ele>85.0</ele><time>2026-04-18T14:12:14.76Z</time></trkpt><trkpt lat="44.4235992" lon="11.4252584"><ele>85.0</ele><time>2026-04-18T14:12:15.76Z</time></trkpt><trkpt lat="44.4234927" lon="11.4252065"><ele>85.0</ele><time>2026-04-18T14:12:16.761Z</time></trkpt><trkpt lat="44.4233869" lon="11.4251549"><ele>85.0</ele><time>2026-04-18T14:12:17.761Z</time></trkpt><trkpt lat="44.4232843" lon="11.425104"><ele>85.0</ele><time>2026-04-18T14:12:18.76Z</time></trkpt><trkpt lat="44.4231866" lon="11.4250458"><ele>85.0</ele><time>2026-04-18T14:12:19.76Z</time></trkpt><trkpt lat="44.4230857" lon="11.4249934"><ele>85.0</ele><time>2026-04-18T14:12:20.761Z</time></trkpt><trkpt lat="44.4229881" lon="11.4249451"><ele>85.0</ele><time>2026-04-18T14:12:21.761Z</time></trkpt><trkpt lat="44.422897" lon="11.4248904"><ele>85.2</ele><time>2026-04-18T14:12:22.761Z</time></trkpt><trkpt lat="44.4227998" lon="11.4248421"><ele>85.4</ele><time>2026-04-18T14:12:23.761Z</time></trkpt><trkpt lat="44.4227057" lon="11.4247925"><ele>85.6</ele><time>2026-04-18T14:12:24.761Z</time></trkpt><trkpt lat="44.4226146" lon="11.4247352"><ele>85.8</ele><time>2026-04-18T14:12:25.76Z</time></trkpt><trkpt lat="44.4225181" lon="11.4246745"><ele>86.0</ele><time>2026-04-18T14:12:26.761Z</time></trkpt><trkpt lat="44.4224208" lon="11.424617"><ele>86.0</ele><time>2026-04-18T14:12:27.76Z</time></trkpt><trkpt lat="44.4223241" lon="11.4245583"><ele>86.0</ele><time>2026-04-18T14:12:28.76Z</time></trkpt><trkpt lat="44.4222228" lon="11.4245044"><ele>86.0</ele><time>2026-04-18T14:12:29.76Z</time></trkpt><trkpt lat="44.4221263" lon="11.4244494"><ele>86.0</ele><time>2026-04-18T14:12:30.761Z</time></trkpt><trkpt lat="44.42203" lon="11.4243982"><ele>86.0</ele><time>2026-04-18T14:12:31.76Z</time></trkpt><trkpt lat="44.4219266" lon="11.4243438"><ele>85.8</ele><time>2026-04-18T14:12:32.761Z</time></trkpt><trkpt lat="44.4218268" lon="11.4242867"><ele>85.6</ele><time>2026-04-18T14:12:33.76Z</time></trkpt><trkpt lat="44.4217351" lon="11.4242233"><ele>85.4</ele><time>2026-04-18T14:12:34.761Z</time></trkpt><trkpt lat="44.4216457" lon="11.4241616"><ele>85.2</ele><time>2026-04-18T14:12:35.76Z</time></trkpt><trkpt lat="44.421545" lon="11.4241051"><ele>85.0</ele><time>2026-04-18T14:12:36.76Z</time></trkpt><trkpt lat="44.4214468" lon="11.4240415"><ele>85.0</ele><time>2026-04-18T14:12:37.761Z</time></trkpt><trkpt lat="44.421348" lon="11.4239639"><ele>85.0</ele><time>2026-04-18T14:12:38.76Z</time></trkpt><trkpt lat="44.4212321" lon="11.4239073"><ele>85.0</ele><time>2026-04-18T14:12:39.761Z</time></trkpt><trkpt lat="44.4211147" lon="11.4238465"><ele>85.0</ele><time>2026-04-18T14:12:40.761Z</time></trkpt><trkpt lat="44.420999" lon="11.4237828"><ele>87.5</ele><time>2026-04-18T14:12:41.76Z</time></trkpt><trkpt lat="44.4208839" lon="11.4237158"><ele>90.0</ele><time>2026-04-18T14:12:42.76Z</time></trkpt><trkpt lat="44.4207503" lon="11.4236523"><ele>92.5</ele><time>2026-04-18T14:12:43.76Z</time></trkpt><trkpt lat="44.4205975" lon="11.4235781"><ele>95.0</ele><time>2026-04-18T14:12:44.76Z</time></trkpt><trkpt lat="44.4204314" lon="11.4234948"><ele>95.0</ele><time>2026-04-18T14:12:45.76Z</time></trkpt><trkpt lat="44.4202694" lon="11.4234159"><ele>95.0</ele><time>2026-04-18T14:12:46.76Z</time></trkpt><trkpt lat="44.4201116" lon="11.4233544"><ele>95.0</ele><time>2026-04-18T14:12:47.76Z</time></trkpt><trkpt lat="44.4199411" lon="11.4232979"><ele>95.0</ele><time>2026-04-18T14:12:48.76Z</time></trkpt><trkpt lat="44.4197853" lon="11.4232373"><ele>95.0</ele><time>2026-04-18T14:12:49.761Z</time></trkpt><trkpt lat="44.4196424" lon="11.4232061"><ele>95.0</ele><time>2026-04-18T14:12:50.761Z</time></trkpt><trkpt lat="44.4195238" lon="11.4231855"><ele>95.0</ele><time>2026-04-18T14:12:51.761Z</time></trkpt><trkpt lat="44.4194145" lon="11.4231685"><ele>94.0</ele><time>2026-04-18T14:12:52.761Z</time></trkpt><trkpt lat="44.4192986" lon="11.4231585"><ele>93.0</ele><time>2026-04-18T14:12:53.761Z</time></trkpt><trkpt lat="44.4191733" lon="11.4231332"><ele>92.0</ele><time>2026-04-18T14:12:54.76Z</time></trkpt><trkpt lat="44.4190359" lon="11.4231038"><ele>91.0</ele><time>2026-04-18T14:12:55.76Z</time></trkpt><trkpt lat="44.4188856" lon="11.4230705"><ele>90.66666666666666</ele><time>2026-04-18T14:12:56.76Z</time></trkpt><trkpt lat="44.4187252" lon="11.4230542"><ele>90.33333333333333</ele><time>2026-04-18T14:12:57.761Z</time></trkpt><trkpt lat="44.4185504" lon="11.4230354"><ele>90.0</ele><time>2026-04-18T14:12:58.761Z</time></trkpt><trkpt lat="44.4183816" lon="11.4230265"><ele>90.0</ele><time>2026-04-18T14:12:59.761Z</time></trkpt><trkpt lat="44.4182066" lon="11.4230213"><ele>90.0</ele><time>2026-04-18T14:13:00.761Z</time></trkpt><trkpt lat="44.4180708" lon="11.4230275"><ele>90.0</ele><time>2026-04-18T14:13:01.761Z</time></trkpt><trkpt lat="44.4179577" lon="11.4230232"><ele>90.0</ele><time>2026-04-18T14:13:02.76Z</time></trkpt><trkpt lat="44.4178612" lon="11.4230301"><ele>90.6</ele><time>2026-04-18T14:13:03.761Z</time></trkpt><trkpt lat="44.4177731" lon="11.4230346"><ele>91.2</ele><time>2026-04-18T14:13:04.761Z</time></trkpt><trkpt lat="44.4176817" lon="11.423057"><ele>91.80000000000001</ele><time>2026-04-18T14:13:05.76Z</time></trkpt><trkpt lat="44.4175893" lon="11.4230591"><ele>92.4</ele><time>2026-04-18T14:13:06.761Z</time></trkpt><trkpt lat="44.4174975" lon="11.4230755"><ele>93.0</ele><time>2026-04-18T14:13:07.761Z</time></trkpt><trkpt lat="44.41739" lon="11.4231034"><ele>93.0</ele><time>2026-04-18T14:13:08.761Z</time></trkpt><trkpt lat="44.4172796" lon="11.4231315"><ele>93.0</ele><time>2026-04-18T14:13:09.76Z</time></trkpt><trkpt lat="44.4171732" lon="11.4231641"><ele>93.0</ele><time>2026-04-18T14:13:10.761Z</time></trkpt><trkpt lat="44.4170648" lon="11.4232011"><ele>93.0</ele><time>2026-04-18T14:13:11.761Z</time></trkpt><trkpt lat="44.4169332" lon="11.4232307"><ele>92.66666666666667</ele><time>2026-04-18T14:13:12.76Z</time></trkpt><trkpt lat="44.4167813" lon="11.4232699"><ele>92.33333333333334</ele><time>2026-04-18T14:13:13.761Z</time></trkpt><trkpt lat="44.416622" lon="11.4233238"><ele>92.0</ele><time>2026-04-18T14:13:14.76Z</time></trkpt><trkpt lat="44.4164611" lon="11.4233715"><ele>91.66666666666667</ele><time>2026-04-18T14:13:15.76Z</time></trkpt><trkpt lat="44.4162838" lon="11.4234121"><ele>91.33333333333333</ele><time>2026-04-18T14:13:16.76Z</time></trkpt><trkpt lat="44.4160904" lon="11.4234617"><ele>91.0</ele><time>2026-04-18T14:13:17.76Z</time></trkpt><trkpt lat="44.4159051" lon="11.4235105"><ele>91.0</ele><time>2026-04-18T14:13:18.76Z</time></trkpt><trkpt lat="44.4157311" lon="11.4235564"><ele>91.0</ele><time>2026-04-18T14:13:19.761Z</time></trkpt><trkpt lat="44.4155689" lon="11.4235933"><ele>91.0</ele><time>2026-04-18T14:13:20.76Z</time></trkpt><trkpt lat="44.4154259" lon="11.4236308"><ele>91.4</ele><time>2026-04-18T14:13:21.76Z</time></trkpt><trkpt lat="44.4152944" lon="11.4236633"><ele>91.8</ele><time>2026-04-18T14:13:22.761Z</time></trkpt><trkpt lat="44.4151785" lon="11.423686"><ele>92.2</ele><time>2026-04-18T14:13:23.76Z</time></trkpt><trkpt lat="44.415081" lon="11.4237116"><ele>92.60000000000001</ele><time>2026-04-18T14:13:24.76Z</time></trkpt><trkpt lat="44.4149934" lon="11.4237408"><ele>93.0</ele><time>2026-04-18T14:13:25.76Z</time></trkpt><trkpt lat="44.4149092" lon="11.4237729"><ele>93.0</ele><time>2026-04-18T14:13:26.761Z</time></trkpt><trkpt lat="44.4148098" lon="11.4237968"><ele>93.0</ele><time>2026-04-18T14:13:27.761Z</time></trkpt><trkpt lat="44.4147039" lon="11.423828"><ele>93.0</ele><time>2026-04-18T14:13:28.761Z</time></trkpt><trkpt lat="44.4145847" lon="11.4238614"><ele>93.0</ele><time>2026-04-18T14:13:29.76Z</time></trkpt><trkpt lat="44.4144619" lon="11.4238893"><ele>93.33333333333333</ele><time>2026-04-18T14:13:30.761Z</time></trkpt><trkpt lat="44.4143225" lon="11.4239394"><ele>93.66666666666666</ele><time>2026-04-18T14:13:31.76Z</time></trkpt><trkpt lat="44.4141706" lon="11.4239909"><ele>94.0</ele><time>2026-04-18T14:13:32.761Z</time></trkpt><trkpt lat="44.4140059" lon="11.4240383"><ele>94.0</ele><time>2026-04-18T14:13:33.761Z</time></trkpt><trkpt lat="44.4138435" lon="11.4240834"><ele>94.0</ele><time>2026-04-18T14:13:34.761Z</time></trkpt><trkpt lat="44.413693" lon="11.4241231"><ele>94.0</ele><time>2026-04-18T14:13:35.76Z</time></trkpt><trkpt lat="44.4135533" lon="11.4241658"><ele>94.25</ele><time>2026-04-18T14:13:36.761Z</time></trkpt><trkpt lat="44.413419" lon="11.4242113"><ele>94.5</ele><time>2026-04-18T14:13:37.761Z</time></trkpt><trkpt lat="44.4132851" lon="11.4242516"><ele>94.75</ele><time>2026-04-18T14:13:38.761Z</time></trkpt><trkpt lat="44.4131521" lon="11.4242869"><ele>95.0</ele><time>2026-04-18T14:13:39.761Z</time></trkpt><trkpt lat="44.4130098" lon="11.4243174"><ele>94.75</ele><time>2026-04-18T14:13:40.76Z</time></trkpt><trkpt lat="44.4128601" lon="11.4243479"><ele>94.5</ele><time>2026-04-18T14:13:41.76Z</time></trkpt><trkpt lat="44.4127131" lon="11.4243849"><ele>94.25</ele><time>2026-04-18T14:13:42.76Z</time></trkpt><trkpt lat="44.4125816" lon="11.4244214"><ele>94.0</ele><time>2026-04-18T14:13:43.761Z</time></trkpt><trkpt lat="44.4124565" lon="11.4244559"><ele>94.0</ele><time>2026-04-18T14:13:44.761Z</time></trkpt><trkpt lat="44.4123341" lon="11.4244883"><ele>94.0</ele><time>2026-04-18T14:13:45.761Z</time></trkpt><trkpt lat="44.4122012" lon="11.4245151"><ele>94.0</ele><time>2026-04-18T14:13:46.76Z</time></trkpt><trkpt lat="44.4120659" lon="11.4245468"><ele>94.0</ele><time>2026-04-18T14:13:47.76Z</time></trkpt><trkpt lat="44.4119337" lon="11.4245758"><ele>94.0</ele><time>2026-04-18T14:13:48.761Z</time></trkpt><trkpt lat="44.4118091" lon="11.4246107"><ele>94.0</ele><time>2026-04-18T14:13:49.76Z</time></trkpt><trkpt lat="44.4116927" lon="11.4246486"><ele>94.0</ele><time>2026-04-18T14:13:50.76Z</time></trkpt><trkpt lat="44.411583" lon="11.4246838"><ele>94.0</ele><time>2026-04-18T14:13:51.761Z</time></trkpt><trkpt lat="44.4114915" lon="11.4247082"><ele>94.0</ele><time>2026-04-18T14:13:52.76Z</time></trkpt><trkpt lat="44.411406" lon="11.4247302"><ele>94.0</ele><time>2026-04-18T14:13:53.761Z</time></trkpt><trkpt lat="44.4113266" lon="11.4247556"><ele>94.0</ele><time>2026-04-18T14:13:54.76Z</time></trkpt><trkpt lat="44.4112488" lon="11.424784"><ele>94.0</ele><time>2026-04-18T14:13:55.76Z</time></trkpt><trkpt lat="44.4111793" lon="11.4248089"><ele>94.0</ele><time>2026-04-18T14:13:56.761Z</time></trkpt><trkpt lat="44.4111083" lon="11.4248348"><ele>94.0</ele><time>2026-04-18T14:13:57.76Z</time></trkpt><trkpt lat="44.4110307" lon="11.4248566"><ele>94.14285714285714</ele><time>2026-04-18T14:13:58.76Z</time></trkpt><trkpt lat="44.4109595" lon="11.4248857"><ele>94.28571428571428</ele><time>2026-04-18T14:13:59.761Z</time></trkpt><trkpt lat="44.4108918" lon="11.4249091"><ele>94.42857142857143</ele><time>2026-04-18T14:14:00.761Z</time></trkpt><trkpt lat="44.410823" lon="11.4249314"><ele>94.57142857142857</ele><time>2026-04-18T14:14:01.76Z</time></trkpt><trkpt lat="44.4107509" lon="11.424952"><ele>94.71428571428572</ele><time>2026-04-18T14:14:02.761Z</time></trkpt><trkpt lat="44.4106821" lon="11.4249758"><ele>94.85714285714286</ele><time>2026-04-18T14:14:03.76Z</time></trkpt><trkpt lat="44.4106075" lon="11.4249955"><ele>95.0</ele><time>2026-04-18T14:14:04.761Z</time></trkpt><trkpt lat="44.4105261" lon="11.4250068"><ele>95.16666666666667</ele><time>2026-04-18T14:14:05.761Z</time></trkpt><trkpt lat="44.4104484" lon="11.4250092"><ele>95.33333333333334</ele><time>2026-04-18T14:14:06.761Z</time></trkpt><trkpt lat="44.4103794" lon="11.425014"><ele>95.5</ele><time>2026-04-18T14:14:07.76Z</time></trkpt><trkpt lat="44.4102747" lon="11.4250025"><ele>95.66666666666667</ele><time>2026-04-18T14:14:09.76Z</time></trkpt><trkpt lat="44.410192" lon="11.4249963"><ele>95.83333333333333</ele><time>2026-04-18T14:14:11.76Z</time></trkpt><trkpt lat="44.4101079" lon="11.4250007"><ele>96.0</ele><time>2026-04-18T14:14:13.761Z</time></trkpt><trkpt lat="44.4100245" lon="11.4249856"><ele>96.0</ele><time>2026-04-18T14:14:15.76Z</time></trkpt><trkpt lat="44.4099208" lon="11.4249628"><ele>96.0</ele><time>2026-04-18T14:14:17.761Z</time></trkpt><trkpt lat="44.4098564" lon="11.4249577"><ele>96.0</ele><time>2026-04-18T14:14:18.761Z</time></trkpt><trkpt lat="44.4097849" lon="11.4249536"><ele>96.0</ele><time>2026-04-18T14:14:19.761Z</time></trkpt><trkpt lat="44.4096992" lon="11.4249419"><ele>96.0</ele><time>2026-04-18T14:14:20.761Z</time></trkpt><trkpt lat="44.4096026" lon="11.4249263"><ele>96.0</ele><time>2026-04-18T14:14:21.761Z</time></trkpt><trkpt lat="44.4095028" lon="11.4249104"><ele>96.19999999999999</ele><time>2026-04-18T14:14:22.76Z</time></trkpt><trkpt lat="44.4093977" lon="11.4248968"><ele>96.39999999999999</ele><time>2026-04-18T14:14:23.76Z</time></trkpt><trkpt lat="44.409287" lon="11.4248908"><ele>96.6</ele><time>2026-04-18T14:14:24.761Z</time></trkpt><trkpt lat="44.4091725" lon="11.4248793"><ele>96.8</ele><time>2026-04-18T14:14:25.761Z</time></trkpt><trkpt lat="44.4090643" lon="11.4248613"><ele>97.0</ele><time>2026-04-18T14:14:26.76Z</time></trkpt><trkpt lat="44.4089679" lon="11.4248527"><ele>97.0</ele><time>2026-04-18T14:14:27.761Z</time></trkpt><trkpt lat="44.4088748" lon="11.424837"><ele>97.0</ele><time>2026-04-18T14:14:28.76Z</time></trkpt><trkpt lat="44.4087706" lon="11.4248233"><ele>97.0</ele><time>2026-04-18T14:14:29.76Z</time></trkpt><trkpt lat="44.4086481" lon="11.4248161"><ele>97.0</ele><time>2026-04-18T14:14:30.76Z</time></trkpt><trkpt lat="44.4085132" lon="11.4247986"><ele>96.33333333333334</ele><time>2026-04-18T14:14:31.76Z</time></trkpt><trkpt lat="44.4083576" lon="11.4247877"><ele>95.66666666666667</ele><time>2026-04-18T14:14:32.76Z</time></trkpt><trkpt lat="44.4081843" lon="11.4247699"><ele>95.0</ele><time>2026-04-18T14:14:33.761Z</time></trkpt><trkpt lat="44.4080065" lon="11.4247582"><ele>95.0</ele><time>2026-04-18T14:14:34.76Z</time></trkpt><trkpt lat="44.4078336" lon="11.4247439"><ele>95.0</ele><time>2026-04-18T14:14:35.76Z</time></trkpt><trkpt lat="44.4076662" lon="11.4247397"><ele>95.0</ele><time>2026-04-18T14:14:36.761Z</time></trkpt><trkpt lat="44.4074975" lon="11.4247307"><ele>95.0</ele><time>2026-04-18T14:14:37.759Z</time></trkpt><trkpt lat="44.4073186" lon="11.424718"><ele>95.0</ele><time>2026-04-18T14:14:38.759Z</time></trkpt><trkpt lat="44.4071405" lon="11.4247044"><ele>95.0</ele><time>2026-04-18T14:14:39.759Z</time></trkpt><trkpt lat="44.4069674" lon="11.4246862"><ele>95.5</ele><time>2026-04-18T14:14:40.759Z</time></trkpt><trkpt lat="44.4068044" lon="11.4246592"><ele>96.0</ele><time>2026-04-18T14:14:41.759Z</time></trkpt><trkpt lat="44.4066587" lon="11.4246381"><ele>96.5</ele><time>2026-04-18T14:14:42.76Z</time></trkpt><trkpt lat="44.4065303" lon="11.4246106"><ele>97.0</ele><time>2026-04-18T14:14:43.76Z</time></trkpt><trkpt lat="44.4064134" lon="11.4245701"><ele>98.0</ele><time>2026-04-18T14:14:44.76Z</time></trkpt><trkpt lat="44.4063095" lon="11.424522"><ele>99.0</ele><time>2026-04-18T14:14:45.76Z</time></trkpt><trkpt lat="44.4062081" lon="11.4244485"><ele>100.0</ele><time>2026-04-18T14:14:46.759Z</time></trkpt><trkpt lat="44.406099" lon="11.4243693"><ele>101.0</ele><time>2026-04-18T14:14:47.759Z</time></trkpt><trkpt lat="44.4059964" lon="11.4242707"><ele>101.0</ele><time>2026-04-18T14:14:48.759Z</time></trkpt><trkpt lat="44.4059097" lon="11.4241851"><ele>101.0</ele><time>2026-04-18T14:14:49.76Z</time></trkpt><trkpt lat="44.4058286" lon="11.4241058"><ele>101.0</ele><time>2026-04-18T14:14:50.76Z</time></trkpt><trkpt lat="44.4057569" lon="11.4240313"><ele>101.0</ele><time>2026-04-18T14:14:51.759Z</time></trkpt><trkpt lat="44.405685" lon="11.4239617"><ele>101.0</ele><time>2026-04-18T14:14:52.76Z</time></trkpt><trkpt lat="44.4056232" lon="11.4238859"><ele>102.49999999999999</ele><time>2026-04-18T14:14:53.76Z</time></trkpt><trkpt lat="44.4055687" lon="11.4238008"><ele>104.0</ele><time>2026-04-18T14:14:54.759Z</time></trkpt><trkpt lat="44.4055115" lon="11.4237161"><ele>105.5</ele><time>2026-04-18T14:14:55.76Z</time></trkpt><trkpt lat="44.4054518" lon="11.4236286"><ele>107.0</ele><time>2026-04-18T14:14:56.76Z</time></trkpt><trkpt lat="44.4053912" lon="11.4235321"><ele>108.49999999999999</ele><time>2026-04-18T14:14:57.76Z</time></trkpt><trkpt lat="44.4053254" lon="11.4234392"><ele>110.0</ele><time>2026-04-18T14:14:58.759Z</time></trkpt><trkpt lat="44.405263" lon="11.423345"><ele>110.0</ele><time>2026-04-18T14:14:59.76Z</time></trkpt><trkpt lat="44.4051963" lon="11.4232606"><ele>110.0</ele><time>2026-04-18T14:15:00.759Z</time></trkpt><trkpt lat="44.40512" lon="11.4231812"><ele>110.0</ele><time>2026-04-18T14:15:01.76Z</time></trkpt><trkpt lat="44.405043" lon="11.4231083"><ele>110.0</ele><time>2026-04-18T14:15:02.76Z</time></trkpt><trkpt lat="44.4049718" lon="11.4230426"><ele>110.0</ele><time>2026-04-18T14:15:03.76Z</time></trkpt><trkpt lat="44.4048873" lon="11.4229771"><ele>112.5</ele><time>2026-04-18T14:15:04.759Z</time></trkpt><trkpt lat="44.4047905" lon="11.4229125"><ele>115.0</ele><time>2026-04-18T14:15:05.759Z</time></trkpt><trkpt lat="44.4046836" lon="11.4228654"><ele>117.5</ele><time>2026-04-18T14:15:06.759Z</time></trkpt><trkpt lat="44.4045743" lon="11.4228151"><ele>120.0</ele><time>2026-04-18T14:15:07.759Z</time></trkpt><trkpt lat="44.404457" lon="11.4227712"><ele>120.0</ele><time>2026-04-18T14:15:08.759Z</time></trkpt><trkpt lat="44.4043366" lon="11.4227355"><ele>120.0</ele><time>2026-04-18T14:15:09.76Z</time></trkpt><trkpt lat="44.4042147" lon="11.4227173"><ele>120.0</ele><time>2026-04-18T14:15:10.759Z</time></trkpt><trkpt lat="44.4041072" lon="11.422696"><ele>120.0</ele><time>2026-04-18T14:15:11.759Z</time></trkpt><trkpt lat="44.4040028" lon="11.4226821"><ele>120.0</ele><time>2026-04-18T14:15:12.76Z</time></trkpt><trkpt lat="44.4038933" lon="11.4226891"><ele>120.0</ele><time>2026-04-18T14:15:13.76Z</time></trkpt><trkpt lat="44.4037752" lon="11.4227067"><ele>120.0</ele><time>2026-04-18T14:15:14.759Z</time></trkpt><trkpt lat="44.4036591" lon="11.4227272"><ele>120.0</ele><time>2026-04-18T14:15:15.76Z</time></trkpt><trkpt lat="44.4035607" lon="11.4227535"><ele>120.0</ele><time>2026-04-18T14:15:16.759Z</time></trkpt><trkpt lat="44.4034599" lon="11.4227975"><ele>120.25</ele><time>2026-04-18T14:15:17.76Z</time></trkpt><trkpt lat="44.4033516" lon="11.4228567"><ele>120.5</ele><time>2026-04-18T14:15:18.759Z</time></trkpt><trkpt lat="44.403245" lon="11.4229244"><ele>120.75</ele><time>2026-04-18T14:15:19.759Z</time></trkpt><trkpt lat="44.4031337" lon="11.423001"><ele>121.0</ele><time>2026-04-18T14:15:20.76Z</time></trkpt><trkpt lat="44.4030209" lon="11.4230918"><ele>116.5</ele><time>2026-04-18T14:15:21.76Z</time></trkpt><trkpt lat="44.4029001" lon="11.4231665"><ele>112.0</ele><time>2026-04-18T14:15:22.76Z</time></trkpt><trkpt lat="44.4027781" lon="11.4232342"><ele>107.5</ele><time>2026-04-18T14:15:23.759Z</time></trkpt><trkpt lat="44.4026692" lon="11.4232961"><ele>103.0</ele><time>2026-04-18T14:15:24.759Z</time></trkpt><trkpt lat="44.4025611" lon="11.4233471"><ele>103.0</ele><time>2026-04-18T14:15:25.759Z</time></trkpt><trkpt lat="44.4024585" lon="11.4233973"><ele>103.0</ele><time>2026-04-18T14:15:26.759Z</time></trkpt><trkpt lat="44.4023569" lon="11.4234557"><ele>103.0</ele><time>2026-04-18T14:15:27.76Z</time></trkpt><trkpt lat="44.4022555" lon="11.4235112"><ele>103.0</ele><time>2026-04-18T14:15:28.76Z</time></trkpt><trkpt lat="44.4021591" lon="11.4235633"><ele>103.0</ele><time>2026-04-18T14:15:29.76Z</time></trkpt><trkpt lat="44.4020677" lon="11.4236165"><ele>102.80000000000001</ele><time>2026-04-18T14:15:30.76Z</time></trkpt><trkpt lat="44.4019826" lon="11.423666"><ele>102.6</ele><time>2026-04-18T14:15:31.76Z</time></trkpt><trkpt lat="44.4018942" lon="11.423727"><ele>102.4</ele><time>2026-04-18T14:15:32.76Z</time></trkpt><trkpt lat="44.4018113" lon="11.4237776"><ele>102.19999999999999</ele><time>2026-04-18T14:15:33.76Z</time></trkpt><trkpt lat="44.4017252" lon="11.423825"><ele>102.0</ele><time>2026-04-18T14:15:34.76Z</time></trkpt><trkpt lat="44.401632" lon="11.4238713"><ele>102.0</ele><time>2026-04-18T14:15:35.76Z</time></trkpt><trkpt lat="44.401528" lon="11.4239264"><ele>102.0</ele><time>2026-04-18T14:15:36.759Z</time></trkpt><trkpt lat="44.4014186" lon="11.4239871"><ele>102.0</ele><time>2026-04-18T14:15:37.759Z</time></trkpt><trkpt lat="44.4013158" lon="11.424045"><ele>102.0</ele><time>2026-04-18T14:15:38.759Z</time></trkpt><trkpt lat="44.4012221" lon="11.4240982"><ele>102.0</ele><time>2026-04-18T14:15:39.76Z</time></trkpt><trkpt lat="44.4011361" lon="11.4241493"><ele>102.6</ele><time>2026-04-18T14:15:40.76Z</time></trkpt><trkpt lat="44.4010463" lon="11.4242034"><ele>103.19999999999999</ele><time>2026-04-18T14:15:41.759Z</time></trkpt><trkpt lat="44.4009445" lon="11.4242605"><ele>103.8</ele><time>2026-04-18T14:15:42.76Z</time></trkpt><trkpt lat="44.4008382" lon="11.4243231"><ele>104.4</ele><time>2026-04-18T14:15:43.76Z</time></trkpt><trkpt lat="44.4007311" lon="11.4243851"><ele>105.0</ele><time>2026-04-18T14:15:44.76Z</time></trkpt><trkpt lat="44.400621" lon="11.4244539"><ele>105.33333333333334</ele><time>2026-04-18T14:15:45.76Z</time></trkpt><trkpt lat="44.4004889" lon="11.4245382"><ele>105.66666666666667</ele><time>2026-04-18T14:15:46.76Z</time></trkpt><trkpt lat="44.4003371" lon="11.4246313"><ele>106.0</ele><time>2026-04-18T14:15:47.76Z</time></trkpt><trkpt lat="44.4001785" lon="11.4247235"><ele>106.0</ele><time>2026-04-18T14:15:48.76Z</time></trkpt><trkpt lat="44.4000275" lon="11.4247995"><ele>106.0</ele><time>2026-04-18T14:15:49.759Z</time></trkpt><trkpt lat="44.3998788" lon="11.4248737"><ele>106.0</ele><time>2026-04-18T14:15:50.76Z</time></trkpt><trkpt lat="44.3997371" lon="11.4249638"><ele>107.0</ele><time>2026-04-18T14:15:51.759Z</time></trkpt><trkpt lat="44.3995919" lon="11.4250483"><ele>108.0</ele><time>2026-04-18T14:15:52.759Z</time></trkpt><trkpt lat="44.3994488" lon="11.4251293"><ele>109.0</ele><time>2026-04-18T14:15:53.76Z</time></trkpt><trkpt lat="44.3993184" lon="11.4252131"><ele>109.0</ele><time>2026-04-18T14:15:54.759Z</time></trkpt><trkpt lat="44.3991932" lon="11.4252867"><ele>109.0</ele><time>2026-04-18T14:15:55.759Z</time></trkpt><trkpt lat="44.3990713" lon="11.4253526"><ele>109.0</ele><time>2026-04-18T14:15:56.76Z</time></trkpt><trkpt lat="44.398955" lon="11.4254173"><ele>109.0</ele><time>2026-04-18T14:15:57.76Z</time></trkpt><trkpt lat="44.3988398" lon="11.4254841"><ele>109.2</ele><time>2026-04-18T14:15:58.76Z</time></trkpt><trkpt lat="44.3987238" lon="11.4255549"><ele>109.4</ele><time>2026-04-18T14:15:59.759Z</time></trkpt><trkpt lat="44.3986149" lon="11.4256192"><ele>109.6</ele><time>2026-04-18T14:16:00.759Z</time></trkpt><trkpt lat="44.3985167" lon="11.4256812"><ele>109.8</ele><time>2026-04-18T14:16:01.759Z</time></trkpt><trkpt lat="44.3984305" lon="11.4257351"><ele>110.0</ele><time>2026-04-18T14:16:02.76Z</time></trkpt><trkpt lat="44.3983483" lon="11.4257792"><ele>109.99999999999999</ele><time>2026-04-18T14:16:03.76Z</time></trkpt><trkpt lat="44.3982684" lon="11.4258226"><ele>110.0</ele><time>2026-04-18T14:16:04.759Z</time></trkpt><trkpt lat="44.3981905" lon="11.4258612"><ele>110.0</ele><time>2026-04-18T14:16:05.759Z</time></trkpt><trkpt lat="44.3981084" lon="11.4259044"><ele>110.0</ele><time>2026-04-18T14:16:06.759Z</time></trkpt><trkpt lat="44.3980289" lon="11.4259435"><ele>109.99999999999999</ele><time>2026-04-18T14:16:07.76Z</time></trkpt><trkpt lat="44.397943" lon="11.425989"><ele>110.0</ele><time>2026-04-18T14:16:08.76Z</time></trkpt><trkpt lat="44.3978551" lon="11.4260331"><ele>109.99999999999999</ele><time>2026-04-18T14:16:09.759Z</time></trkpt><trkpt lat="44.3977688" lon="11.4260828"><ele>110.0</ele><time>2026-04-18T14:16:10.76Z</time></trkpt><trkpt lat="44.3976862" lon="11.4261313"><ele>110.0</ele><time>2026-04-18T14:16:11.76Z</time></trkpt><trkpt lat="44.3976029" lon="11.4261774"><ele>110.0</ele><time>2026-04-18T14:16:12.759Z</time></trkpt><trkpt lat="44.3975202" lon="11.4262223"><ele>109.99999999999999</ele><time>2026-04-18T14:16:13.76Z</time></trkpt><trkpt lat="44.3974402" lon="11.4262734"><ele>110.0</ele><time>2026-04-18T14:16:14.76Z</time></trkpt><trkpt lat="44.397355" lon="11.426324"><ele>110.0</ele><time>2026-04-18T14:16:15.759Z</time></trkpt><trkpt lat="44.3972702" lon="11.4263661"><ele>110.0</ele><time>2026-04-18T14:16:16.76Z</time></trkpt><trkpt lat="44.397179" lon="11.4264079"><ele>110.0</ele><time>2026-04-18T14:16:17.759Z</time></trkpt><trkpt lat="44.3970872" lon="11.426445"><ele>110.0</ele><time>2026-04-18T14:16:18.76Z</time></trkpt><trkpt lat="44.3969918" lon="11.4264806"><ele>110.0</ele><time>2026-04-18T14:16:19.76Z</time></trkpt><trkpt lat="44.3969036" lon="11.4265055"><ele>109.66666666666666</ele><time>2026-04-18T14:16:20.759Z</time></trkpt><trkpt lat="44.3968135" lon="11.4265241"><ele>109.33333333333333</ele><time>2026-04-18T14:16:21.759Z</time></trkpt><trkpt lat="44.3967299" lon="11.4265432"><ele>109.0</ele><time>2026-04-18T14:16:22.759Z</time></trkpt><trkpt lat="44.3966462" lon="11.426558"><ele>108.66666666666666</ele><time>2026-04-18T14:16:23.759Z</time></trkpt><trkpt lat="44.3965638" lon="11.4265697"><ele>108.33333333333333</ele><time>2026-04-18T14:16:24.759Z</time></trkpt><trkpt lat="44.3964814" lon="11.4265918"><ele>108.0</ele><time>2026-04-18T14:16:25.76Z</time></trkpt><trkpt lat="44.3964067" lon="11.4266127"><ele>108.5</ele><time>2026-04-18T14:16:26.759Z</time></trkpt><trkpt lat="44.3963213" lon="11.4266285"><ele>109.0</ele><time>2026-04-18T14:16:27.76Z</time></trkpt><trkpt lat="44.3962316" lon="11.4266514"><ele>109.5</ele><time>2026-04-18T14:16:28.76Z</time></trkpt><trkpt lat="44.3961428" lon="11.426683"><ele>110.0</ele><time>2026-04-18T14:16:29.759Z</time></trkpt><trkpt lat="44.3960626" lon="11.4266996"><ele>110.5</ele><time>2026-04-18T14:16:30.76Z</time></trkpt><trkpt lat="44.3959734" lon="11.4267177"><ele>111.0</ele><time>2026-04-18T14:16:31.759Z</time></trkpt><trkpt lat="44.3958794" lon="11.4267402"><ele>111.0</ele><time>2026-04-18T14:16:32.76Z</time></trkpt><trkpt lat="44.3957814" lon="11.4267653"><ele>111.0</ele><time>2026-04-18T14:16:33.759Z</time></trkpt><trkpt lat="44.3956789" lon="11.4267862"><ele>111.0</ele><time>2026-04-18T14:16:34.76Z</time></trkpt><trkpt lat="44.3955772" lon="11.4268112"><ele>111.0</ele><time>2026-04-18T14:16:35.759Z</time></trkpt><trkpt lat="44.39548" lon="11.4268298"><ele>111.0</ele><time>2026-04-18T14:16:36.76Z</time></trkpt><trkpt lat="44.3953887" lon="11.4268537"><ele>111.0</ele><time>2026-04-18T14:16:37.76Z</time></trkpt><trkpt lat="44.3953043" lon="11.4268792"><ele>111.0</ele><time>2026-04-18T14:16:38.76Z</time></trkpt><trkpt lat="44.3952161" lon="11.4269027"><ele>111.0</ele><time>2026-04-18T14:16:39.76Z</time></trkpt><trkpt lat="44.3951327" lon="11.4269151"><ele>111.0</ele><time>2026-04-18T14:16:40.759Z</time></trkpt><trkpt lat="44.3950491" lon="11.4269343"><ele>111.0</ele><time>2026-04-18T14:16:41.76Z</time></trkpt><trkpt lat="44.3949607" lon="11.4269559"><ele>111.0</ele><time>2026-04-18T14:16:42.759Z</time></trkpt><trkpt lat="44.3948696" lon="11.4269716"><ele>111.0</ele><time>2026-04-18T14:16:43.76Z</time></trkpt><trkpt lat="44.3947865" lon="11.4269804"><ele>111.0</ele><time>2026-04-18T14:16:44.759Z</time></trkpt><trkpt lat="44.3947123" lon="11.4269867"><ele>111.0</ele><time>2026-04-18T14:16:45.759Z</time></trkpt><trkpt lat="44.3946353" lon="11.4269978"><ele>111.0</ele><time>2026-04-18T14:16:46.759Z</time></trkpt><trkpt lat="44.3945672" lon="11.4270114"><ele>111.0</ele><time>2026-04-18T14:16:47.759Z</time></trkpt><trkpt lat="44.3945047" lon="11.4270245"><ele>111.0</ele><time>2026-04-18T14:16:48.759Z</time></trkpt><trkpt lat="44.3944342" lon="11.4270498"><ele>111.0</ele><time>2026-04-18T14:16:49.76Z</time></trkpt><trkpt lat="44.394361" lon="11.4270732"><ele>111.19999999999999</ele><time>2026-04-18T14:16:50.759Z</time></trkpt><trkpt lat="44.3942858" lon="11.4270888"><ele>111.39999999999999</ele><time>2026-04-18T14:16:51.759Z</time></trkpt><trkpt lat="44.3941968" lon="11.427099"><ele>111.6</ele><time>2026-04-18T14:16:52.759Z</time></trkpt><trkpt lat="44.3941065" lon="11.4271129"><ele>111.8</ele><time>2026-04-18T14:16:53.759Z</time></trkpt><trkpt lat="44.394002" lon="11.4271325"><ele>112.0</ele><time>2026-04-18T14:16:54.759Z</time></trkpt><trkpt lat="44.3938927" lon="11.4271642"><ele>111.75</ele><time>2026-04-18T14:16:55.76Z</time></trkpt><trkpt lat="44.3937772" lon="11.4271885"><ele>111.5</ele><time>2026-04-18T14:16:56.759Z</time></trkpt><trkpt lat="44.3936537" lon="11.4272255"><ele>111.25</ele><time>2026-04-18T14:16:57.759Z</time></trkpt><trkpt lat="44.3935334" lon="11.427256"><ele>111.0</ele><time>2026-04-18T14:16:58.76Z</time></trkpt><trkpt lat="44.3934274" lon="11.4272787"><ele>111.0</ele><time>2026-04-18T14:16:59.76Z</time></trkpt><trkpt lat="44.3933251" lon="11.4272926"><ele>111.0</ele><time>2026-04-18T14:17:00.76Z</time></trkpt><trkpt lat="44.3932251" lon="11.4273061"><ele>111.0</ele><time>2026-04-18T14:17:01.759Z</time></trkpt><trkpt lat="44.3931334" lon="11.4273209"><ele>111.0</ele><time>2026-04-18T14:17:02.759Z</time></trkpt><trkpt lat="44.3930382" lon="11.4273456"><ele>111.0</ele><time>2026-04-18T14:17:03.76Z</time></trkpt><trkpt lat="44.3929364" lon="11.4273699"><ele>110.5</ele><time>2026-04-18T14:17:04.76Z</time></trkpt><trkpt lat="44.3928268" lon="11.4273877"><ele>110.0</ele><time>2026-04-18T14:17:05.759Z</time></trkpt><trkpt lat="44.392716" lon="11.4274011"><ele>109.5</ele><time>2026-04-18T14:17:06.759Z</time></trkpt><trkpt lat="44.3925974" lon="11.4274295"><ele>109.0</ele><time>2026-04-18T14:17:07.759Z</time></trkpt><trkpt lat="44.3924701" lon="11.4274713"><ele>109.0</ele><time>2026-04-18T14:17:08.759Z</time></trkpt><trkpt lat="44.3923426" lon="11.4274955"><ele>109.0</ele><time>2026-04-18T14:17:09.76Z</time></trkpt><trkpt lat="44.3922355" lon="11.4275137"><ele>109.0</ele><time>2026-04-18T14:17:10.759Z</time></trkpt><trkpt lat="44.3921261" lon="11.4275363"><ele>109.0</ele><time>2026-04-18T14:17:11.76Z</time></trkpt><trkpt lat="44.392035" lon="11.4275579"><ele>109.0</ele><time>2026-04-18T14:17:12.759Z</time></trkpt><trkpt lat="44.3919518" lon="11.4275739"><ele>109.4</ele><time>2026-04-18T14:17:13.76Z</time></trkpt><trkpt lat="44.391862" lon="11.4275881"><ele>109.80000000000001</ele><time>2026-04-18T14:17:14.76Z</time></trkpt><trkpt lat="44.3917708" lon="11.4276173"><ele>110.19999999999999</ele><time>2026-04-18T14:17:15.76Z</time></trkpt><trkpt lat="44.3916734" lon="11.4276464"><ele>110.6</ele><time>2026-04-18T14:17:16.76Z</time></trkpt><trkpt lat="44.3915763" lon="11.4276781"><ele>111.0</ele><time>2026-04-18T14:17:17.759Z</time></trkpt><trkpt lat="44.3914794" lon="11.427712"><ele>111.0</ele><time>2026-04-18T14:17:18.76Z</time></trkpt><trkpt lat="44.3913828" lon="11.4277408"><ele>111.0</ele><time>2026-04-18T14:17:19.76Z</time></trkpt><trkpt lat="44.3912841" lon="11.4277695"><ele>111.0</ele><time>2026-04-18T14:17:20.76Z</time></trkpt><trkpt lat="44.3911816" lon="11.4278013"><ele>111.0</ele><time>2026-04-18T14:17:21.759Z</time></trkpt><trkpt lat="44.3910724" lon="11.4278293"><ele>111.0</ele><time>2026-04-18T14:17:22.76Z</time></trkpt><trkpt lat="44.3909481" lon="11.4278321"><ele>111.5</ele><time>2026-04-18T14:17:23.759Z</time></trkpt><trkpt lat="44.3908023" lon="11.4278434"><ele>112.0</ele><time>2026-04-18T14:17:24.759Z</time></trkpt><trkpt lat="44.3906606" lon="11.4278771"><ele>112.5</ele><time>2026-04-18T14:17:25.76Z</time></trkpt><trkpt lat="44.3905328" lon="11.4279042"><ele>113.0</ele><time>2026-04-18T14:17:26.759Z</time></trkpt><trkpt lat="44.3904184" lon="11.4279286"><ele>113.80000000000001</ele><time>2026-04-18T14:17:27.759Z</time></trkpt><trkpt lat="44.3903152" lon="11.4279474"><ele>114.60000000000001</ele><time>2026-04-18T14:17:28.76Z</time></trkpt><trkpt lat="44.3902106" lon="11.4279634"><ele>115.39999999999999</ele><time>2026-04-18T14:17:29.759Z</time></trkpt><trkpt lat="44.3901082" lon="11.4279927"><ele>116.19999999999999</ele><time>2026-04-18T14:17:30.76Z</time></trkpt><trkpt lat="44.3900116" lon="11.428033"><ele>117.0</ele><time>2026-04-18T14:17:31.76Z</time></trkpt><trkpt lat="44.3899174" lon="11.4280872"><ele>116.8</ele><time>2026-04-18T14:17:32.759Z</time></trkpt><trkpt lat="44.3898308" lon="11.4281558"><ele>116.6</ele><time>2026-04-18T14:17:33.76Z</time></trkpt><trkpt lat="44.3897446" lon="11.4282335"><ele>116.39999999999999</ele><time>2026-04-18T14:17:34.76Z</time></trkpt><trkpt lat="44.3896652" lon="11.4283154"><ele>116.19999999999999</ele><time>2026-04-18T14:17:35.76Z</time></trkpt><trkpt lat="44.3895908" lon="11.4284062"><ele>116.0</ele><time>2026-04-18T14:17:36.76Z</time></trkpt><trkpt lat="44.3895168" lon="11.4285093"><ele>116.0</ele><time>2026-04-18T14:17:37.759Z</time></trkpt><trkpt lat="44.3894418" lon="11.4286269"><ele>116.0</ele><time>2026-04-18T14:17:38.759Z</time></trkpt><trkpt lat="44.3893669" lon="11.4287437"><ele>116.0</ele><time>2026-04-18T14:17:39.76Z</time></trkpt><trkpt lat="44.3893047" lon="11.4288489"><ele>116.0</ele><time>2026-04-18T14:17:40.76Z</time></trkpt><trkpt lat="44.3892478" lon="11.4289413"><ele>116.0</ele><time>2026-04-18T14:17:41.76Z</time></trkpt><trkpt lat="44.389188" lon="11.4290436"><ele>116.0</ele><time>2026-04-18T14:17:42.759Z</time></trkpt><trkpt lat="44.3891278" lon="11.4291448"><ele>116.0</ele><time>2026-04-18T14:17:43.76Z</time></trkpt><trkpt lat="44.3890619" lon="11.4292354"><ele>116.0</ele><time>2026-04-18T14:17:44.76Z</time></trkpt><trkpt lat="44.3889894" lon="11.4293225"><ele>116.0</ele><time>2026-04-18T14:17:45.759Z</time></trkpt><trkpt lat="44.3889065" lon="11.4294042"><ele>116.0</ele><time>2026-04-18T14:17:46.76Z</time></trkpt><trkpt lat="44.3888228" lon="11.4294825"><ele>115.8</ele><time>2026-04-18T14:17:47.759Z</time></trkpt><trkpt lat="44.3887371" lon="11.4295757"><ele>115.6</ele><time>2026-04-18T14:17:48.759Z</time></trkpt><trkpt lat="44.3886554" lon="11.4296882"><ele>115.4</ele><time>2026-04-18T14:17:49.76Z</time></trkpt><trkpt lat="44.3885624" lon="11.4297855"><ele>115.2</ele><time>2026-04-18T14:17:50.759Z</time></trkpt><trkpt lat="44.3884651" lon="11.4298406"><ele>115.0</ele><time>2026-04-18T14:17:51.76Z</time></trkpt><trkpt lat="44.3883579" lon="11.4298461"><ele>115.5</ele><time>2026-04-18T14:17:52.759Z</time></trkpt><trkpt lat="44.3882426" lon="11.4298123"><ele>116.0</ele><time>2026-04-18T14:17:53.76Z</time></trkpt><trkpt lat="44.3881178" lon="11.4297541"><ele>116.5</ele><time>2026-04-18T14:17:54.759Z</time></trkpt><trkpt lat="44.3879933" lon="11.4296936"><ele>117.0</ele><time>2026-04-18T14:17:55.76Z</time></trkpt><trkpt lat="44.3878701" lon="11.4296446"><ele>116.75</ele><time>2026-04-18T14:17:56.76Z</time></trkpt><trkpt lat="44.3877537" lon="11.4295977"><ele>116.5</ele><time>2026-04-18T14:17:57.76Z</time></trkpt><trkpt lat="44.3876332" lon="11.4295523"><ele>116.25</ele><time>2026-04-18T14:17:58.759Z</time></trkpt><trkpt lat="44.3875099" lon="11.4295089"><ele>116.0</ele><time>2026-04-18T14:17:59.759Z</time></trkpt><trkpt lat="44.3873824" lon="11.4294577"><ele>116.0</ele><time>2026-04-18T14:18:00.758Z</time></trkpt><trkpt lat="44.3872466" lon="11.4294045"><ele>116.0</ele><time>2026-04-18T14:18:01.759Z</time></trkpt><trkpt lat="44.3870973" lon="11.4293464"><ele>116.0</ele><time>2026-04-18T14:18:02.758Z</time></trkpt><trkpt lat="44.3869393" lon="11.429283"><ele>116.66666666666666</ele><time>2026-04-18T14:18:03.758Z</time></trkpt><trkpt lat="44.3867732" lon="11.4292156"><ele>117.33333333333334</ele><time>2026-04-18T14:18:04.759Z</time></trkpt><trkpt lat="44.3866149" lon="11.4291499"><ele>118.0</ele><time>2026-04-18T14:18:05.758Z</time></trkpt><trkpt lat="44.3864662" lon="11.4290859"><ele>119.0</ele><time>2026-04-18T14:18:06.758Z</time></trkpt><trkpt lat="44.3863184" lon="11.4290305"><ele>120.0</ele><time>2026-04-18T14:18:07.758Z</time></trkpt><trkpt lat="44.386188" lon="11.4289757"><ele>121.0</ele><time>2026-04-18T14:18:08.759Z</time></trkpt><trkpt lat="44.3860662" lon="11.4289335"><ele>122.0</ele><time>2026-04-18T14:18:09.759Z</time></trkpt><trkpt lat="44.3859627" lon="11.4288929"><ele>122.0</ele><time>2026-04-18T14:18:10.759Z</time></trkpt><trkpt lat="44.3858633" lon="11.4288493"><ele>122.0</ele><time>2026-04-18T14:18:11.758Z</time></trkpt><trkpt lat="44.3857606" lon="11.4288062"><ele>122.0</ele><time>2026-04-18T14:18:12.758Z</time></trkpt><trkpt lat="44.3856456" lon="11.4287585"><ele>122.0</ele><time>2026-04-18T14:18:13.758Z</time></trkpt><trkpt lat="44.3855272" lon="11.4287138"><ele>121.6</ele><time>2026-04-18T14:18:14.759Z</time></trkpt><trkpt lat="44.3854081" lon="11.4286647"><ele>121.19999999999999</ele><time>2026-04-18T14:18:15.759Z</time></trkpt><trkpt lat="44.3852973" lon="11.4286289"><ele>120.8</ele><time>2026-04-18T14:18:16.759Z</time></trkpt><trkpt lat="44.3851916" lon="11.4285867"><ele>120.4</ele><time>2026-04-18T14:18:17.759Z</time></trkpt><trkpt lat="44.3850964" lon="11.428545"><ele>120.0</ele><time>2026-04-18T14:18:18.758Z</time></trkpt><trkpt lat="44.3850183" lon="11.4284936"><ele>120.0</ele><time>2026-04-18T14:18:19.758Z</time></trkpt><trkpt lat="44.3849647" lon="11.4284002"><ele>120.0</ele><time>2026-04-18T14:18:20.759Z</time></trkpt><trkpt lat="44.3849307" lon="11.4282843"><ele>120.0</ele><time>2026-04-18T14:18:21.759Z</time></trkpt><trkpt lat="44.384909" lon="11.428131"><ele>120.0</ele><time>2026-04-18T14:18:22.759Z</time></trkpt><trkpt lat="44.3848803" lon="11.4279765"><ele>120.0</ele><time>2026-04-18T14:18:23.759Z</time></trkpt><trkpt lat="44.384829" lon="11.4278395"><ele>122.25</ele><time>2026-04-18T14:18:24.758Z</time></trkpt><trkpt lat="44.384789" lon="11.4277067"><ele>124.5</ele><time>2026-04-18T14:18:25.759Z</time></trkpt><trkpt lat="44.3847687" lon="11.4275563"><ele>126.75</ele><time>2026-04-18T14:18:26.759Z</time></trkpt><trkpt lat="44.3847876" lon="11.4273765"><ele>129.0</ele><time>2026-04-18T14:18:27.759Z</time></trkpt><trkpt lat="44.3848196" lon="11.4271908"><ele>131.25</ele><time>2026-04-18T14:18:28.758Z</time></trkpt><trkpt lat="44.3848414" lon="11.4270083"><ele>133.5</ele><time>2026-04-18T14:18:29.758Z</time></trkpt><trkpt lat="44.3848587" lon="11.4268321"><ele>135.75</ele><time>2026-04-18T14:18:30.758Z</time></trkpt><trkpt lat="44.3848647" lon="11.4266498"><ele>138.0</ele><time>2026-04-18T14:18:31.758Z</time></trkpt><trkpt lat="44.3848594" lon="11.4264839"><ele>138.0</ele><time>2026-04-18T14:18:32.758Z</time></trkpt><trkpt lat="44.3848448" lon="11.4263414"><ele>138.0</ele><time>2026-04-18T14:18:33.758Z</time></trkpt><trkpt lat="44.384845" lon="11.4262094"><ele>138.0</ele><time>2026-04-18T14:18:34.758Z</time></trkpt><trkpt lat="44.3848768" lon="11.4260992"><ele>138.0</ele><time>2026-04-18T14:18:35.759Z</time></trkpt><trkpt lat="44.3849291" lon="11.4260434"><ele>138.0</ele><time>2026-04-18T14:18:36.759Z</time></trkpt><trkpt lat="44.3850145" lon="11.4260353"><ele>138.0</ele><time>2026-04-18T14:18:37.758Z</time></trkpt><trkpt lat="44.3851086" lon="11.4260778"><ele>139.33333333333334</ele><time>2026-04-18T14:18:38.758Z</time></trkpt><trkpt lat="44.3852004" lon="11.4261396"><ele>140.66666666666666</ele><time>2026-04-18T14:18:39.759Z</time></trkpt><trkpt lat="44.3852808" lon="11.4261379"><ele>142.0</ele><time>2026-04-18T14:18:40.758Z</time></trkpt><trkpt lat="44.3853409" lon="11.4261076"><ele>143.33333333333331</ele><time>2026-04-18T14:18:41.759Z</time></trkpt><trkpt lat="44.3854011" lon="11.4260566"><ele>144.66666666666666</ele><time>2026-04-18T14:18:42.759Z</time></trkpt><trkpt lat="44.3854304" lon="11.4259653"><ele>146.0</ele><time>2026-04-18T14:18:43.758Z</time></trkpt><trkpt lat="44.3854339" lon="11.4258541"><ele>146.0</ele><time>2026-04-18T14:18:44.758Z</time></trkpt><trkpt lat="44.3854018" lon="11.4257576"><ele>146.0</ele><time>2026-04-18T14:18:45.758Z</time></trkpt><trkpt lat="44.385333" lon="11.4256651"><ele>146.0</ele><time>2026-04-18T14:18:46.758Z</time></trkpt><trkpt lat="44.3852521" lon="11.4255658"><ele>146.0</ele><time>2026-04-18T14:18:47.759Z</time></trkpt><trkpt lat="44.3851677" lon="11.4254783"><ele>146.0</ele><time>2026-04-18T14:18:48.759Z</time></trkpt><trkpt lat="44.3850851" lon="11.4253925"><ele>147.8</ele><time>2026-04-18T14:18:49.758Z</time></trkpt><trkpt lat="44.3850253" lon="11.4253005"><ele>149.6</ele><time>2026-04-18T14:18:50.758Z</time></trkpt><trkpt lat="44.3849916" lon="11.4251803"><ele>151.4</ele><time>2026-04-18T14:18:51.759Z</time></trkpt><trkpt lat="44.3849831" lon="11.4250356"><ele>153.2</ele><time>2026-04-18T14:18:52.759Z</time></trkpt><trkpt lat="44.3849823" lon="11.4248808"><ele>155.0</ele><time>2026-04-18T14:18:53.758Z</time></trkpt><trkpt lat="44.3849822" lon="11.4247043"><ele>156.0</ele><time>2026-04-18T14:18:54.759Z</time></trkpt><trkpt lat="44.3849737" lon="11.4245277"><ele>157.0</ele><time>2026-04-18T14:18:55.759Z</time></trkpt><trkpt lat="44.3849668" lon="11.4243758"><ele>158.0</ele><time>2026-04-18T14:18:56.759Z</time></trkpt><trkpt lat="44.384943" lon="11.4242929"><ele>159.0</ele><time>2026-04-18T14:18:57.759Z</time></trkpt><trkpt lat="44.3848988" lon="11.4241338"><ele>160.0</ele><time>2026-04-18T14:19:13.759Z</time></trkpt><trkpt lat="44.3848871" lon="11.4240381"><ele>160.0</ele><time>2026-04-18T14:19:15.759Z</time></trkpt><trkpt lat="44.3848692" lon="11.4238156"><ele>160.0</ele><time>2026-04-18T14:19:27.758Z</time></trkpt><trkpt lat="44.3848677" lon="11.4236809"><ele>160.0</ele><time>2026-04-18T14:19:29.758Z</time></trkpt><trkpt lat="44.3848568" lon="11.4235308"><ele>160.0</ele><time>2026-04-18T14:19:31.759Z</time></trkpt><trkpt lat="44.3848474" lon="11.4233695"><ele>161.28571428571428</ele><time>2026-04-18T14:19:33.758Z</time></trkpt><trkpt lat="44.3848423" lon="11.4232791"><ele>162.57142857142858</ele><time>2026-04-18T14:19:34.758Z</time></trkpt><trkpt lat="44.384832" lon="11.4231875"><ele>163.85714285714286</ele><time>2026-04-18T14:19:35.758Z</time></trkpt><trkpt lat="44.3848236" lon="11.4230996"><ele>165.14285714285714</ele><time>2026-04-18T14:19:36.759Z</time></trkpt><trkpt lat="44.3848105" lon="11.423012"><ele>166.42857142857142</ele><time>2026-04-18T14:19:37.759Z</time></trkpt><trkpt lat="44.3848034" lon="11.4229205"><ele>167.71428571428572</ele><time>2026-04-18T14:19:38.759Z</time></trkpt><trkpt lat="44.3847776" lon="11.4227509"><ele>169.0</ele><time>2026-04-18T14:19:40.758Z</time></trkpt><trkpt lat="44.3847631" lon="11.4226623"><ele>169.85714285714286</ele><time>2026-04-18T14:19:41.759Z</time></trkpt><trkpt lat="44.3847419" lon="11.4225639"><ele>170.71428571428572</ele><time>2026-04-18T14:19:42.758Z</time></trkpt><trkpt lat="44.3847217" lon="11.4224706"><ele>171.57142857142856</ele><time>2026-04-18T14:19:43.759Z</time></trkpt><trkpt lat="44.3847023" lon="11.4223762"><ele>172.42857142857144</ele><time>2026-04-18T14:19:44.759Z</time></trkpt><trkpt lat="44.3846829" lon="11.4222836"><ele>173.28571428571428</ele><time>2026-04-18T14:19:45.759Z</time></trkpt><trkpt lat="44.3846566" lon="11.4221961"><ele>174.14285714285714</ele><time>2026-04-18T14:19:46.758Z</time></trkpt><trkpt lat="44.384621" lon="11.4221041"><ele>175.0</ele><time>2026-04-18T14:19:47.759Z</time></trkpt><trkpt lat="44.3845808" lon="11.4220167"><ele>179.66666666666669</ele><time>2026-04-18T14:19:48.759Z</time></trkpt><trkpt lat="44.3845462" lon="11.4219217"><ele>184.33333333333334</ele><time>2026-04-18T14:19:49.759Z</time></trkpt><trkpt lat="44.3845095" lon="11.4218294"><ele>189.0</ele><time>2026-04-18T14:19:50.759Z</time></trkpt><trkpt lat="44.3844631" lon="11.4217434"><ele>193.66666666666669</ele><time>2026-04-18T14:19:51.758Z</time></trkpt><trkpt lat="44.3844095" lon="11.4216579"><ele>198.33333333333334</ele><time>2026-04-18T14:19:52.759Z</time></trkpt><trkpt lat="44.3843547" lon="11.4215713"><ele>203.0</ele><time>2026-04-18T14:19:53.758Z</time></trkpt><trkpt lat="44.3843007" lon="11.4214853"><ele>203.00000000000003</ele><time>2026-04-18T14:19:54.758Z</time></trkpt><trkpt lat="44.3842496" lon="11.4213982"><ele>203.0</ele><time>2026-04-18T14:19:55.759Z</time></trkpt><trkpt lat="44.384192" lon="11.4213142"><ele>203.0</ele><time>2026-04-18T14:19:56.758Z</time></trkpt><trkpt lat="44.3841332" lon="11.4212312"><ele>203.0</ele><time>2026-04-18T14:19:57.758Z</time></trkpt><trkpt lat="44.3840747" lon="11.421145"><ele>203.00000000000003</ele><time>2026-04-18T14:19:58.758Z</time></trkpt><trkpt lat="44.3840136" lon="11.4210622"><ele>203.0</ele><time>2026-04-18T14:19:59.759Z</time></trkpt><trkpt lat="44.38395" lon="11.4209803"><ele>204.60000000000002</ele><time>2026-04-18T14:20:00.759Z</time></trkpt><trkpt lat="44.3838877" lon="11.4208893"><ele>206.20000000000002</ele><time>2026-04-18T14:20:01.758Z</time></trkpt><trkpt lat="44.383817" lon="11.4207998"><ele>207.8</ele><time>2026-04-18T14:20:02.759Z</time></trkpt><trkpt lat="44.3837432" lon="11.4207184"><ele>209.4</ele><time>2026-04-18T14:20:03.759Z</time></trkpt><trkpt lat="44.3836685" lon="11.4206374"><ele>211.0</ele><time>2026-04-18T14:20:04.759Z</time></trkpt><trkpt lat="44.3835928" lon="11.4205628"><ele>213.66666666666666</ele><time>2026-04-18T14:20:05.759Z</time></trkpt><trkpt lat="44.3835267" lon="11.4204875"><ele>216.33333333333331</ele><time>2026-04-18T14:20:06.759Z</time></trkpt><trkpt lat="44.3834605" lon="11.4204227"><ele>219.0</ele><time>2026-04-18T14:20:07.758Z</time></trkpt><trkpt lat="44.383396" lon="11.4203605"><ele>221.66666666666669</ele><time>2026-04-18T14:20:08.759Z</time></trkpt><trkpt lat="44.383339" lon="11.4203064"><ele>224.33333333333334</ele><time>2026-04-18T14:20:09.759Z</time></trkpt><trkpt lat="44.3832821" lon="11.4202382"><ele>227.0</ele><time>2026-04-18T14:20:10.758Z</time></trkpt><trkpt lat="44.3832298" lon="11.4201665"><ele>229.33333333333334</ele><time>2026-04-18T14:20:11.759Z</time></trkpt><trkpt lat="44.383177" lon="11.4200989"><ele>231.66666666666669</ele><time>2026-04-18T14:20:12.759Z</time></trkpt><trkpt lat="44.3831222" lon="11.4200128"><ele>234.0</ele><time>2026-04-18T14:20:13.759Z</time></trkpt><trkpt lat="44.3830695" lon="11.4199235"><ele>236.33333333333331</ele><time>2026-04-18T14:20:14.759Z</time></trkpt><trkpt lat="44.3830214" lon="11.4198255"><ele>238.66666666666666</ele><time>2026-04-18T14:20:15.758Z</time></trkpt><trkpt lat="44.3829685" lon="11.4197244"><ele>241.0</ele><time>2026-04-18T14:20:16.758Z</time></trkpt><trkpt lat="44.3829126" lon="11.4196403"><ele>244.33333333333331</ele><time>2026-04-18T14:20:17.759Z</time></trkpt><trkpt lat="44.3828522" lon="11.4195602"><ele>247.66666666666666</ele><time>2026-04-18T14:20:18.758Z</time></trkpt><trkpt lat="44.3827987" lon="11.4194729"><ele>251.0</ele><time>2026-04-18T14:20:19.759Z</time></trkpt><trkpt lat="44.382759" lon="11.4194008"><ele>254.33333333333331</ele><time>2026-04-18T14:20:20.758Z</time></trkpt><trkpt lat="44.3827176" lon="11.4192738"><ele>257.6666666666667</ele><time>2026-04-18T14:20:22.758Z</time></trkpt><trkpt lat="44.3827269" lon="11.4191756"><ele>261.0</ele><time>2026-04-18T14:20:25.758Z</time></trkpt><trkpt lat="44.3826968" lon="11.4190681"><ele>261.0</ele><time>2026-04-18T14:20:28.758Z</time></trkpt><trkpt lat="44.3825986" lon="11.4190052"><ele>261.0</ele><time>2026-04-18T14:20:30.758Z</time></trkpt><trkpt lat="44.382523" lon="11.4189591"><ele>261.0</ele><time>2026-04-18T14:20:31.759Z</time></trkpt><trkpt lat="44.3824438" lon="11.4189119"><ele>261.0</ele><time>2026-04-18T14:20:32.759Z</time></trkpt><trkpt lat="44.3823541" lon="11.4188606"><ele>261.0</ele><time>2026-04-18T14:20:33.758Z</time></trkpt><trkpt lat="44.3822598" lon="11.4188049"><ele>263.8</ele><time>2026-04-18T14:20:34.758Z</time></trkpt><trkpt lat="44.3821651" lon="11.4187547"><ele>266.6</ele><time>2026-04-18T14:20:35.758Z</time></trkpt><trkpt lat="44.3820675" lon="11.4187109"><ele>269.4</ele><time>2026-04-18T14:20:36.759Z</time></trkpt><trkpt lat="44.3819708" lon="11.4186632"><ele>272.2</ele><time>2026-04-18T14:20:37.759Z</time></trkpt><trkpt lat="44.3818708" lon="11.4186286"><ele>275.0</ele><time>2026-04-18T14:20:38.758Z</time></trkpt><trkpt lat="44.3817715" lon="11.4186075"><ele>275.0</ele><time>2026-04-18T14:20:39.758Z</time></trkpt><trkpt lat="44.3816807" lon="11.4186027"><ele>275.0</ele><time>2026-04-18T14:20:40.759Z</time></trkpt><trkpt lat="44.3815942" lon="11.4185967"><ele>275.0</ele><time>2026-04-18T14:20:41.758Z</time></trkpt><trkpt lat="44.3815164" lon="11.418587"><ele>275.0</ele><time>2026-04-18T14:20:42.758Z</time></trkpt><trkpt lat="44.3814495" lon="11.4185734"><ele>275.0</ele><time>2026-04-18T14:20:43.759Z</time></trkpt><trkpt lat="44.3813825" lon="11.4185748"><ele>275.0</ele><time>2026-04-18T14:20:44.759Z</time></trkpt><trkpt lat="44.3813136" lon="11.4185686"><ele>277.6666666666667</ele><time>2026-04-18T14:20:45.758Z</time></trkpt><trkpt lat="44.3812387" lon="11.4185676"><ele>280.33333333333337</ele><time>2026-04-18T14:20:46.758Z</time></trkpt><trkpt lat="44.3811599" lon="11.4185756"><ele>283.0</ele><time>2026-04-18T14:20:47.759Z</time></trkpt><trkpt lat="44.3810865" lon="11.418606"><ele>285.6666666666667</ele><time>2026-04-18T14:20:48.758Z</time></trkpt><trkpt lat="44.3810106" lon="11.4186404"><ele>288.3333333333333</ele><time>2026-04-18T14:20:49.758Z</time></trkpt><trkpt lat="44.3809327" lon="11.4186867"><ele>291.0</ele><time>2026-04-18T14:20:50.759Z</time></trkpt><trkpt lat="44.380844" lon="11.4187371"><ele>291.0</ele><time>2026-04-18T14:20:51.759Z</time></trkpt><trkpt lat="44.3807594" lon="11.4187872"><ele>291.0</ele><time>2026-04-18T14:20:52.758Z</time></trkpt><trkpt lat="44.3806805" lon="11.4188245"><ele>291.0</ele><time>2026-04-18T14:20:53.758Z</time></trkpt><trkpt lat="44.3806015" lon="11.4188538"><ele>291.0</ele><time>2026-04-18T14:20:54.759Z</time></trkpt><trkpt lat="44.3805086" lon="11.4188632"><ele>291.0</ele><time>2026-04-18T14:20:55.759Z</time></trkpt><trkpt lat="44.3804173" lon="11.4188537"><ele>291.0</ele><time>2026-04-18T14:20:56.759Z</time></trkpt><trkpt lat="44.3803337" lon="11.4188313"><ele>292.1666666666667</ele><time>2026-04-18T14:20:57.759Z</time></trkpt><trkpt lat="44.3802487" lon="11.4188034"><ele>293.3333333333333</ele><time>2026-04-18T14:20:58.759Z</time></trkpt><trkpt lat="44.3801705" lon="11.4187551"><ele>294.5</ele><time>2026-04-18T14:20:59.758Z</time></trkpt><trkpt lat="44.3800941" lon="11.4186995"><ele>295.66666666666663</ele><time>2026-04-18T14:21:00.759Z</time></trkpt><trkpt lat="44.3800194" lon="11.4186378"><ele>296.8333333333333</ele><time>2026-04-18T14:21:01.759Z</time></trkpt><trkpt lat="44.3799699" lon="11.4185662"><ele>298.0</ele><time>2026-04-18T14:21:02.759Z</time></trkpt><trkpt lat="44.3799369" lon="11.4184759"><ele>298.0</ele><time>2026-04-18T14:21:03.759Z</time></trkpt><trkpt lat="44.3799205" lon="11.4183885"><ele>298.0</ele><time>2026-04-18T14:21:04.758Z</time></trkpt><trkpt lat="44.3799349" lon="11.4183013"><ele>298.0</ele><time>2026-04-18T14:21:05.758Z</time></trkpt><trkpt lat="44.3799521" lon="11.4182024"><ele>298.0</ele><time>2026-04-18T14:21:06.758Z</time></trkpt><trkpt lat="44.3799687" lon="11.4180945"><ele>298.0</ele><time>2026-04-18T14:21:07.759Z</time></trkpt><trkpt lat="44.3799783" lon="11.4179391"><ele>298.0</ele><time>2026-04-18T14:21:09.759Z</time></trkpt><trkpt lat="44.3799399" lon="11.4178019"><ele>298.66666666666663</ele><time>2026-04-18T14:21:11.758Z</time></trkpt><trkpt lat="44.3798515" lon="11.4176882"><ele>299.3333333333333</ele><time>2026-04-18T14:21:13.759Z</time></trkpt><trkpt lat="44.3797991" lon="11.4176184"><ele>300.0</ele><time>2026-04-18T14:21:14.758Z</time></trkpt><trkpt lat="44.379735" lon="11.4175331"><ele>300.6666666666667</ele><time>2026-04-18T14:21:15.758Z</time></trkpt><trkpt lat="44.3796741" lon="11.4174432"><ele>301.33333333333337</ele><time>2026-04-18T14:21:16.758Z</time></trkpt><trkpt lat="44.3796301" lon="11.4173621"><ele>302.0</ele><time>2026-04-18T14:21:17.759Z</time></trkpt><trkpt lat="44.3795933" lon="11.4172501"><ele>304.4</ele><time>2026-04-18T14:21:19.758Z</time></trkpt><trkpt lat="44.3795575" lon="11.4171369"><ele>306.79999999999995</ele><time>2026-04-18T14:21:32.759Z</time></trkpt><trkpt lat="44.3794959" lon="11.4170392"><ele>309.2</ele><time>2026-04-18T14:21:34.758Z</time></trkpt><trkpt lat="44.3794332" lon="11.4169642"><ele>311.59999999999997</ele><time>2026-04-18T14:21:36.758Z</time></trkpt><trkpt lat="44.379339" lon="11.4168777"><ele>314.0</ele><time>2026-04-18T14:21:38.758Z</time></trkpt><trkpt lat="44.3792765" lon="11.4168244"><ele>313.99999999999994</ele><time>2026-04-18T14:21:39.758Z</time></trkpt><trkpt lat="44.3792188" lon="11.4167799"><ele>314.0</ele><time>2026-04-18T14:21:40.758Z</time></trkpt><trkpt lat="44.3791591" lon="11.4167373"><ele>314.0</ele><time>2026-04-18T14:21:41.758Z</time></trkpt><trkpt lat="44.3790948" lon="11.4166885"><ele>314.0</ele><time>2026-04-18T14:21:42.758Z</time></trkpt><trkpt lat="44.379038" lon="11.4166437"><ele>314.0</ele><time>2026-04-18T14:21:43.759Z</time></trkpt><trkpt lat="44.3789844" lon="11.4165943"><ele>313.99999999999994</ele><time>2026-04-18T14:21:44.759Z</time></trkpt><trkpt lat="44.3789254" lon="11.4165306"><ele>314.0</ele><time>2026-04-18T14:21:45.758Z</time></trkpt><trkpt lat="44.3788725" lon="11.4164545"><ele>313.8</ele><time>2026-04-18T14:21:46.759Z</time></trkpt><trkpt lat="44.3788212" lon="11.416367"><ele>313.59999999999997</ele><time>2026-04-18T14:21:47.758Z</time></trkpt><trkpt lat="44.3787527" lon="11.4162499"><ele>313.4</ele><time>2026-04-18T14:21:48.759Z</time></trkpt><trkpt lat="44.3786955" lon="11.4161244"><ele>313.2</ele><time>2026-04-18T14:21:49.758Z</time></trkpt><trkpt lat="44.3786406" lon="11.416003"><ele>313.0</ele><time>2026-04-18T14:21:50.758Z</time></trkpt><trkpt lat="44.3785957" lon="11.4159054"><ele>315.3333333333333</ele><time>2026-04-18T14:21:51.759Z</time></trkpt><trkpt lat="44.378559" lon="11.4158254"><ele>317.66666666666663</ele><time>2026-04-18T14:21:52.759Z</time></trkpt><trkpt lat="44.378492" lon="11.4157158"><ele>320.0</ele><time>2026-04-18T14:21:54.759Z</time></trkpt><trkpt lat="44.3784244" lon="11.4156504"><ele>322.3333333333333</ele><time>2026-04-18T14:21:56.759Z</time></trkpt><trkpt lat="44.3783446" lon="11.4156153"><ele>324.6666666666667</ele><time>2026-04-18T14:21:59.759Z</time></trkpt><trkpt lat="44.3783743" lon="11.4155291"><ele>327.0</ele><time>2026-04-18T14:22:22.758Z</time></trkpt><trkpt lat="44.378475" lon="11.4154807"><ele>327.0</ele><time>2026-04-18T14:22:24.758Z</time></trkpt><trkpt lat="44.3785608" lon="11.4154537"><ele>327.0</ele><time>2026-04-18T14:22:26.757Z</time></trkpt><trkpt lat="44.3786468" lon="11.4154276"><ele>327.0</ele><time>2026-04-18T14:22:28.758Z</time></trkpt><trkpt lat="44.3787201" lon="11.415396"><ele>327.0</ele><time>2026-04-18T14:22:30.757Z</time></trkpt><trkpt lat="44.3787854" lon="11.4153381"><ele>327.0</ele><time>2026-04-18T14:22:42.758Z</time></trkpt><trkpt lat="44.3788537" lon="11.4152455"><ele>327.0</ele><time>2026-04-18T14:22:45.757Z</time></trkpt><trkpt lat="44.3788996" lon="11.4151516"><ele>326.1666666666667</ele><time>2026-04-18T14:22:47.757Z</time></trkpt><trkpt lat="44.3789477" lon="11.4150312"><ele>325.3333333333333</ele><time>2026-04-18T14:22:49.757Z</time></trkpt><trkpt lat="44.3789987" lon="11.4148823"><ele>324.5</ele><time>2026-04-18T14:22:51.757Z</time></trkpt><trkpt lat="44.3790377" lon="11.414787"><ele>323.66666666666663</ele><time>2026-04-18T14:22:52.757Z</time></trkpt><trkpt lat="44.3790726" lon="11.4146984"><ele>322.8333333333333</ele><time>2026-04-18T14:22:53.758Z</time></trkpt><trkpt lat="44.3791091" lon="11.414621"><ele>322.0</ele><time>2026-04-18T14:22:54.758Z</time></trkpt><trkpt lat="44.3791723" lon="11.4144807"><ele>321.0</ele><time>2026-04-18T14:22:56.758Z</time></trkpt><trkpt lat="44.3792139" lon="11.4144064"><ele>320.0</ele><time>2026-04-18T14:22:57.758Z</time></trkpt><trkpt lat="44.3792561" lon="11.4143302"><ele>319.0</ele><time>2026-04-18T14:22:58.758Z</time></trkpt><trkpt lat="44.3792976" lon="11.414254"><ele>318.0</ele><time>2026-04-18T14:22:59.758Z</time></trkpt><trkpt lat="44.3793409" lon="11.4141737"><ele>317.0</ele><time>2026-04-18T14:23:00.757Z</time></trkpt><trkpt lat="44.3793881" lon="11.4140674"><ele>316.0</ele><time>2026-04-18T14:23:02.758Z</time></trkpt><trkpt lat="44.3794256" lon="11.4139791"><ele>315.0</ele><time>2026-04-18T14:23:04.757Z</time></trkpt><trkpt lat="44.3794865" lon="11.4138828"><ele>315.0</ele><time>2026-04-18T14:23:07.758Z</time></trkpt><trkpt lat="44.3795634" lon="11.4138528"><ele>315.0</ele><time>2026-04-18T14:23:10.757Z</time></trkpt><trkpt lat="44.3796504" lon="11.4138573"><ele>315.0</ele><time>2026-04-18T14:23:13.757Z</time></trkpt><trkpt lat="44.3797038" lon="11.4139054"><ele>315.0</ele><time>2026-04-18T14:23:16.757Z</time></trkpt><trkpt lat="44.3797931" lon="11.4139533"><ele>315.0</ele><time>2026-04-18T14:23:25.757Z</time></trkpt><trkpt lat="44.3798574" lon="11.4139401"><ele>315.0</ele><time>2026-04-18T14:23:30.757Z</time></trkpt><trkpt lat="44.3799349" lon="11.4139477"><ele>313.1666666666667</ele><time>2026-04-18T14:23:34.757Z</time></trkpt><trkpt lat="44.3800062" lon="11.4139348"><ele>311.3333333333333</ele><time>2026-04-18T14:23:37.757Z</time></trkpt><trkpt lat="44.3800696" lon="11.4139233"><ele>309.5</ele><time>2026-04-18T14:23:40.758Z</time></trkpt><trkpt lat="44.3801928" lon="11.4139097"><ele>307.66666666666663</ele><time>2026-04-18T14:23:53.758Z</time></trkpt><trkpt lat="44.380265" lon="11.4139063"><ele>305.8333333333333</ele><time>2026-04-18T14:23:59.757Z</time></trkpt><trkpt lat="44.3803333" lon="11.4139043"><ele>304.0</ele><time>2026-04-18T14:24:04.757Z</time></trkpt><trkpt lat="44.3804094" lon="11.4138934"><ele>304.0</ele><time>2026-04-18T14:24:08.758Z</time></trkpt><trkpt lat="44.3804937" lon="11.4138782"><ele>304.0</ele><time>2026-04-18T14:24:11.758Z</time></trkpt><trkpt lat="44.3805725" lon="11.4138585"><ele>304.0</ele><time>2026-04-18T14:24:13.757Z</time></trkpt><trkpt lat="44.3806459" lon="11.4138858"><ele>304.0</ele><time>2026-04-18T14:24:16.757Z</time></trkpt><trkpt lat="44.3807185" lon="11.4139207"><ele>304.0</ele><time>2026-04-18T14:24:20.757Z</time></trkpt><trkpt lat="44.3807969" lon="11.4138863"><ele>304.0</ele><time>2026-04-18T14:24:33.758Z</time></trkpt><trkpt lat="44.3808688" lon="11.4138233"><ele>299.8333333333333</ele><time>2026-04-18T14:24:35.758Z</time></trkpt><trkpt lat="44.3809237" lon="11.413772"><ele>295.66666666666663</ele><time>2026-04-18T14:24:36.758Z</time></trkpt><trkpt lat="44.3809908" lon="11.4137147"><ele>291.5</ele><time>2026-04-18T14:24:37.757Z</time></trkpt><trkpt lat="44.381068" lon="11.4136585"><ele>287.3333333333333</ele><time>2026-04-18T14:24:38.758Z</time></trkpt><trkpt lat="44.3811562" lon="11.4136115"><ele>283.1666666666667</ele><time>2026-04-18T14:24:39.758Z</time></trkpt><trkpt lat="44.3812425" lon="11.4135676"><ele>279.0</ele><time>2026-04-18T14:24:40.758Z</time></trkpt><trkpt lat="44.3813221" lon="11.4135413"><ele>279.0</ele><time>2026-04-18T14:24:41.758Z</time></trkpt><trkpt lat="44.3813873" lon="11.4135208"><ele>279.0</ele><time>2026-04-18T14:24:42.758Z</time></trkpt><trkpt lat="44.3814822" lon="11.4135022"><ele>279.0</ele><time>2026-04-18T14:24:44.757Z</time></trkpt><trkpt lat="44.3815563" lon="11.4134922"><ele>279.0</ele><time>2026-04-18T14:24:47.757Z</time></trkpt><trkpt lat="44.3814956" lon="11.4134677"><ele>279.0</ele><time>2026-04-18T14:25:00.757Z</time></trkpt><trkpt lat="44.3813956" lon="11.4135293"><ele>279.0</ele><time>2026-04-18T14:25:02.758Z</time></trkpt><trkpt lat="44.3813103" lon="11.413551"><ele>279.0</ele><time>2026-04-18T14:25:03.758Z</time></trkpt><trkpt lat="44.3812151" lon="11.4135886"><ele>279.0</ele><time>2026-04-18T14:25:04.757Z</time></trkpt><trkpt lat="44.381124" lon="11.4136364"><ele>279.0</ele><time>2026-04-18T14:25:05.757Z</time></trkpt><trkpt lat="44.3810378" lon="11.4136956"><ele>279.0</ele><time>2026-04-18T14:25:06.758Z</time></trkpt><trkpt lat="44.3809609" lon="11.4137518"><ele>279.0</ele><time>2026-04-18T14:25:07.758Z</time></trkpt><trkpt lat="44.3808962" lon="11.4138035"><ele>279.0</ele><time>2026-04-18T14:25:08.758Z</time></trkpt><trkpt lat="44.3808012" lon="11.4138505"><ele>279.0</ele><time>2026-04-18T14:25:10.758Z</time></trkpt><trkpt lat="44.3807316" lon="11.4138339"><ele>279.0</ele><time>2026-04-18T14:25:12.757Z</time></trkpt><trkpt lat="44.3806784" lon="11.413759"><ele>279.0</ele><time>2026-04-18T14:25:14.758Z</time></trkpt><trkpt lat="44.3806326" lon="11.4136112"><ele>279.0</ele><time>2026-04-18T14:25:16.758Z</time></trkpt><trkpt lat="44.3805783" lon="11.4134902"><ele>282.8</ele><time>2026-04-18T14:25:18.758Z</time></trkpt><trkpt lat="44.38051" lon="11.4133905"><ele>286.59999999999997</ele><time>2026-04-18T14:25:20.758Z</time></trkpt><trkpt lat="44.3804292" lon="11.4133042"><ele>290.4</ele><time>2026-04-18T14:25:22.758Z</time></trkpt><trkpt lat="44.3803618" lon="11.4132201"><ele>294.2</ele><time>2026-04-18T14:25:24.758Z</time></trkpt><trkpt lat="44.3803229" lon="11.4131376"><ele>298.0</ele><time>2026-04-18T14:25:27.758Z</time></trkpt><trkpt lat="44.3802756" lon="11.413009"><ele>295.2</ele><time>2026-04-18T14:25:41.757Z</time></trkpt><trkpt lat="44.3802463" lon="11.4128838"><ele>292.4</ele><time>2026-04-18T14:25:43.758Z</time></trkpt><trkpt lat="44.3802122" lon="11.4127409"><ele>289.59999999999997</ele><time>2026-04-18T14:25:45.758Z</time></trkpt><trkpt lat="44.3801844" lon="11.4126605"><ele>286.8</ele><time>2026-04-18T14:25:46.758Z</time></trkpt><trkpt lat="44.38014" lon="11.4125266"><ele>284.0</ele><time>2026-04-18T14:25:48.756Z</time></trkpt><trkpt lat="44.3800912" lon="11.4124129"><ele>284.0</ele><time>2026-04-18T14:25:50.757Z</time></trkpt><trkpt lat="44.3800486" lon="11.4123007"><ele>284.0</ele><time>2026-04-18T14:25:52.757Z</time></trkpt><trkpt lat="44.3800221" lon="11.4122057"><ele>284.0</ele><time>2026-04-18T14:25:54.756Z</time></trkpt><trkpt lat="44.3799949" lon="11.4121125"><ele>284.0</ele><time>2026-04-18T14:25:56.756Z</time></trkpt><trkpt lat="44.3799598" lon="11.4120116"><ele>284.0</ele><time>2026-04-18T14:25:58.757Z</time></trkpt><trkpt lat="44.379908" lon="11.4119094"><ele>284.0</ele><time>2026-04-18T14:26:01.756Z</time></trkpt><trkpt lat="44.3798901" lon="11.4117926"><ele>281.33333333333337</ele><time>2026-04-18T14:26:04.756Z</time></trkpt><trkpt lat="44.3799032" lon="11.41168"><ele>278.6666666666667</ele><time>2026-04-18T14:26:06.756Z</time></trkpt><trkpt lat="44.3799212" lon="11.4115563"><ele>276.0</ele><time>2026-04-18T14:26:08.756Z</time></trkpt><trkpt lat="44.3799218" lon="11.4114653"><ele>273.3333333333333</ele><time>2026-04-18T14:26:10.757Z</time></trkpt><trkpt lat="44.3799301" lon="11.4113283"><ele>270.66666666666663</ele><time>2026-04-18T14:26:13.756Z</time></trkpt><trkpt lat="44.3799527" lon="11.411213"><ele>268.0</ele><time>2026-04-18T14:26:15.757Z</time></trkpt><trkpt lat="44.3799772" lon="11.4111029"><ele>267.16666666666663</ele><time>2026-04-18T14:26:17.757Z</time></trkpt><trkpt lat="44.3799949" lon="11.4109958"><ele>266.3333333333333</ele><time>2026-04-18T14:26:19.756Z</time></trkpt><trkpt lat="44.3800159" lon="11.4109066"><ele>265.5</ele><time>2026-04-18T14:26:21.757Z</time></trkpt><trkpt lat="44.3800369" lon="11.4108018"><ele>264.6666666666667</ele><time>2026-04-18T14:26:23.756Z</time></trkpt><trkpt lat="44.3800616" lon="11.41068"><ele>263.83333333333337</ele><time>2026-04-18T14:26:25.757Z</time></trkpt><trkpt lat="44.3800793" lon="11.4105699"><ele>263.0</ele><time>2026-04-18T14:26:27.757Z</time></trkpt><trkpt lat="44.3800972" lon="11.4104409"><ele>260.1666666666667</ele><time>2026-04-18T14:26:29.756Z</time></trkpt><trkpt lat="44.3801376" lon="11.4103152"><ele>257.33333333333337</ele><time>2026-04-18T14:26:31.757Z</time></trkpt><trkpt lat="44.3801764" lon="11.4102254"><ele>254.5</ele><time>2026-04-18T14:26:33.756Z</time></trkpt><trkpt lat="44.3802298" lon="11.4101394"><ele>251.66666666666669</ele><time>2026-04-18T14:26:35.756Z</time></trkpt><trkpt lat="44.3802857" lon="11.4100317"><ele>248.83333333333334</ele><time>2026-04-18T14:26:38.757Z</time></trkpt><trkpt lat="44.3803306" lon="11.4099265"><ele>246.0</ele><time>2026-04-18T14:26:40.756Z</time></trkpt><trkpt lat="44.3803802" lon="11.409811"><ele>246.0</ele><time>2026-04-18T14:26:42.757Z</time></trkpt><trkpt lat="44.3804271" lon="11.4097101"><ele>246.00000000000003</ele><time>2026-04-18T14:26:44.757Z</time></trkpt><trkpt lat="44.3804746" lon="11.409614"><ele>246.00000000000003</ele><time>2026-04-18T14:26:46.756Z</time></trkpt><trkpt lat="44.3805147" lon="11.409494"><ele>246.0</ele><time>2026-04-18T14:26:48.756Z</time></trkpt><trkpt lat="44.3805341" lon="11.4093594"><ele>246.0</ele><time>2026-04-18T14:26:50.756Z</time></trkpt><trkpt lat="44.3805501" lon="11.4092176"><ele>245.4</ele><time>2026-04-18T14:26:52.757Z</time></trkpt><trkpt lat="44.3805648" lon="11.409065"><ele>244.8</ele><time>2026-04-18T14:26:54.757Z</time></trkpt><trkpt lat="44.3805871" lon="11.4089035"><ele>244.20000000000002</ele><time>2026-04-18T14:26:56.757Z</time></trkpt><trkpt lat="44.3806023" lon="11.4087518"><ele>243.60000000000002</ele><time>2026-04-18T14:26:58.756Z</time></trkpt><trkpt lat="44.3806173" lon="11.4086341"><ele>243.0</ele><time>2026-04-18T14:27:00.756Z</time></trkpt><trkpt lat="44.3806442" lon="11.4084849"><ele>242.57142857142856</ele><time>2026-04-18T14:27:02.757Z</time></trkpt><trkpt lat="44.380656" lon="11.4083873"><ele>242.14285714285717</ele><time>2026-04-18T14:27:03.757Z</time></trkpt><trkpt lat="44.3806662" lon="11.408288"><ele>241.71428571428572</ele><time>2026-04-18T14:27:04.757Z</time></trkpt><trkpt lat="44.3806765" lon="11.4081912"><ele>241.28571428571428</ele><time>2026-04-18T14:27:05.756Z</time></trkpt><trkpt lat="44.3806836" lon="11.4080959"><ele>240.85714285714283</ele><time>2026-04-18T14:27:06.756Z</time></trkpt><trkpt lat="44.3806937" lon="11.4080024"><ele>240.42857142857144</ele><time>2026-04-18T14:27:07.756Z</time></trkpt><trkpt lat="44.3807014" lon="11.4079054"><ele>240.0</ele><time>2026-04-18T14:27:08.756Z</time></trkpt><trkpt lat="44.380707" lon="11.4078016"><ele>238.33333333333334</ele><time>2026-04-18T14:27:09.757Z</time></trkpt><trkpt lat="44.380713" lon="11.407686"><ele>236.66666666666669</ele><time>2026-04-18T14:27:10.756Z</time></trkpt><trkpt lat="44.3807204" lon="11.4075859"><ele>235.0</ele><time>2026-04-18T14:27:11.756Z</time></trkpt><trkpt lat="44.38073" lon="11.4074895"><ele>233.33333333333334</ele><time>2026-04-18T14:27:12.757Z</time></trkpt><trkpt lat="44.3807406" lon="11.4073313"><ele>231.66666666666669</ele><time>2026-04-18T14:27:14.757Z</time></trkpt><trkpt lat="44.3807483" lon="11.4072128"><ele>230.0</ele><time>2026-04-18T14:27:16.757Z</time></trkpt><trkpt lat="44.380758" lon="11.4071204"><ele>228.16666666666669</ele><time>2026-04-18T14:27:18.756Z</time></trkpt><trkpt lat="44.3807713" lon="11.4070216"><ele>226.33333333333334</ele><time>2026-04-18T14:27:20.757Z</time></trkpt><trkpt lat="44.3807789" lon="11.4069138"><ele>224.5</ele><time>2026-04-18T14:27:22.756Z</time></trkpt><trkpt lat="44.3807929" lon="11.4067537"><ele>222.66666666666669</ele><time>2026-04-18T14:28:10.757Z</time></trkpt><trkpt lat="44.3808019" lon="11.4066457"><ele>220.83333333333334</ele><time>2026-04-18T14:28:13.756Z</time></trkpt><trkpt lat="44.3808343" lon="11.4065497"><ele>219.0</ele><time>2026-04-18T14:28:18.756Z</time></trkpt><trkpt lat="44.380899" lon="11.4065212"><ele>219.0</ele><time>2026-04-18T14:28:23.757Z</time></trkpt><trkpt lat="44.3809681" lon="11.4065171"><ele>219.0</ele><time>2026-04-18T14:28:27.757Z</time></trkpt><trkpt lat="44.3810542" lon="11.4065297"><ele>219.0</ele><time>2026-04-18T14:28:30.757Z</time></trkpt><trkpt lat="44.3811202" lon="11.4065461"><ele>219.0</ele><time>2026-04-18T14:28:32.757Z</time></trkpt><trkpt lat="44.3811941" lon="11.4065708"><ele>219.0</ele><time>2026-04-18T14:28:34.757Z</time></trkpt><trkpt lat="44.3812749" lon="11.4066044"><ele>219.0</ele><time>2026-04-18T14:28:36.757Z</time></trkpt><trkpt lat="44.3813634" lon="11.4066519"><ele>218.0</ele><time>2026-04-18T14:28:38.757Z</time></trkpt><trkpt lat="44.3814402" lon="11.4066988"><ele>217.0</ele><time>2026-04-18T14:28:40.757Z</time></trkpt><trkpt lat="44.3815225" lon="11.4067586"><ele>216.0</ele><time>2026-04-18T14:28:42.757Z</time></trkpt><trkpt lat="44.3816113" lon="11.4068104"><ele>215.0</ele><time>2026-04-18T14:28:44.757Z</time></trkpt><trkpt lat="44.3816854" lon="11.4068584"><ele>214.0</ele><time>2026-04-18T14:28:46.756Z</time></trkpt><trkpt lat="44.3817562" lon="11.4069218"><ele>213.0</ele><time>2026-04-18T14:28:48.756Z</time></trkpt><trkpt lat="44.381826" lon="11.406992"><ele>213.0</ele><time>2026-04-18T14:28:50.757Z</time></trkpt><trkpt lat="44.3818918" lon="11.4070747"><ele>213.0</ele><time>2026-04-18T14:28:52.756Z</time></trkpt><trkpt lat="44.3819581" lon="11.4071527"><ele>213.0</ele><time>2026-04-18T14:28:54.757Z</time></trkpt><trkpt lat="44.3820158" lon="11.4072336"><ele>213.0</ele><time>2026-04-18T14:28:56.756Z</time></trkpt><trkpt lat="44.3820767" lon="11.4073153"><ele>213.0</ele><time>2026-04-18T14:28:59.757Z</time></trkpt><trkpt lat="44.3821121" lon="11.4073921"><ele>213.0</ele><time>2026-04-18T14:29:01.756Z</time></trkpt><trkpt lat="44.3821623" lon="11.4075047"><ele>210.66666666666666</ele><time>2026-04-18T14:29:03.757Z</time></trkpt><trkpt lat="44.3821954" lon="11.4076382"><ele>208.33333333333331</ele><time>2026-04-18T14:29:05.757Z</time></trkpt><trkpt lat="44.3822198" lon="11.4077504"><ele>206.0</ele><time>2026-04-18T14:29:07.756Z</time></trkpt><trkpt lat="44.3822368" lon="11.4078574"><ele>203.66666666666666</ele><time>2026-04-18T14:29:09.756Z</time></trkpt><trkpt lat="44.3822462" lon="11.407985"><ele>201.33333333333331</ele><time>2026-04-18T14:29:12.757Z</time></trkpt><trkpt lat="44.3822798" lon="11.4080908"><ele>199.0</ele><time>2026-04-18T14:29:15.756Z</time></trkpt><trkpt lat="44.3823481" lon="11.4081275"><ele>198.99999999999997</ele><time>2026-04-18T14:29:27.757Z</time></trkpt><trkpt lat="44.3824134" lon="11.4080698"><ele>199.0</ele><time>2026-04-18T14:29:31.756Z</time></trkpt><trkpt lat="44.3824749" lon="11.4079892"><ele>199.0</ele><time>2026-04-18T14:29:34.757Z</time></trkpt><trkpt lat="44.3825202" lon="11.4079261"><ele>199.0</ele><time>2026-04-18T14:29:36.756Z</time></trkpt><trkpt lat="44.3825669" lon="11.4078583"><ele>198.99999999999997</ele><time>2026-04-18T14:29:38.757Z</time></trkpt><trkpt lat="44.3826353" lon="11.4077673"><ele>199.0</ele><time>2026-04-18T14:29:41.757Z</time></trkpt><trkpt lat="44.3826765" lon="11.4076809"><ele>198.7142857142857</ele><time>2026-04-18T14:29:43.756Z</time></trkpt><trkpt lat="44.3827232" lon="11.4076057"><ele>198.42857142857142</ele><time>2026-04-18T14:29:45.756Z</time></trkpt><trkpt lat="44.3827702" lon="11.4075188"><ele>198.14285714285714</ele><time>2026-04-18T14:29:47.755Z</time></trkpt><trkpt lat="44.382815" lon="11.4074092"><ele>197.85714285714283</ele><time>2026-04-18T14:29:49.757Z</time></trkpt><trkpt lat="44.382853" lon="11.4073319"><ele>197.57142857142858</ele><time>2026-04-18T14:29:51.756Z</time></trkpt><trkpt lat="44.3828912" lon="11.4072577"><ele>197.28571428571428</ele><time>2026-04-18T14:29:53.756Z</time></trkpt><trkpt lat="44.3829269" lon="11.4071811"><ele>197.0</ele><time>2026-04-18T14:29:55.756Z</time></trkpt><trkpt lat="44.3829619" lon="11.407099"><ele>196.00000000000003</ele><time>2026-04-18T14:29:57.756Z</time></trkpt><trkpt lat="44.3830076" lon="11.4069952"><ele>195.0</ele><time>2026-04-18T14:29:59.756Z</time></trkpt><trkpt lat="44.3830501" lon="11.4068869"><ele>194.0</ele><time>2026-04-18T14:30:01.756Z</time></trkpt><trkpt lat="44.3830878" lon="11.4067859"><ele>193.0</ele><time>2026-04-18T14:30:03.756Z</time></trkpt><trkpt lat="44.3831291" lon="11.4066862"><ele>192.0</ele><time>2026-04-18T14:30:05.756Z</time></trkpt><trkpt lat="44.3831761" lon="11.4065888"><ele>191.0</ele><time>2026-04-18T14:30:07.755Z</time></trkpt><trkpt lat="44.3832236" lon="11.4064849"><ele>185.4</ele><time>2026-04-18T14:30:09.756Z</time></trkpt><trkpt lat="44.3832796" lon="11.4063811"><ele>179.8</ele><time>2026-04-18T14:30:11.755Z</time></trkpt><trkpt lat="44.383361" lon="11.4062621"><ele>174.20000000000002</ele><time>2026-04-18T14:30:13.755Z</time></trkpt><trkpt lat="44.3834404" lon="11.4061468"><ele>168.60000000000002</ele><time>2026-04-18T14:30:15.755Z</time></trkpt><trkpt lat="44.3835274" lon="11.4060321"><ele>163.0</ele><time>2026-04-18T14:30:17.755Z</time></trkpt><trkpt lat="44.3836118" lon="11.405916"><ele>162.0</ele><time>2026-04-18T14:30:19.755Z</time></trkpt><trkpt lat="44.3836937" lon="11.4057913"><ele>161.0</ele><time>2026-04-18T14:30:21.756Z</time></trkpt><trkpt lat="44.3837392" lon="11.4057174"><ele>160.0</ele><time>2026-04-18T14:30:22.756Z</time></trkpt><trkpt lat="44.3837825" lon="11.4056457"><ele>159.0</ele><time>2026-04-18T14:30:23.756Z</time></trkpt><trkpt lat="44.3838565" lon="11.4055214"><ele>158.0</ele><time>2026-04-18T14:30:25.756Z</time></trkpt><trkpt lat="44.3839294" lon="11.4054035"><ele>154.4</ele><time>2026-04-18T14:30:27.756Z</time></trkpt><trkpt lat="44.3839954" lon="11.4053021"><ele>150.8</ele><time>2026-04-18T14:30:29.756Z</time></trkpt><trkpt lat="44.3840534" lon="11.4051807"><ele>147.2</ele><time>2026-04-18T14:30:31.756Z</time></trkpt><trkpt lat="44.3841014" lon="11.4050583"><ele>143.6</ele><time>2026-04-18T14:30:33.756Z</time></trkpt><trkpt lat="44.3841364" lon="11.4049479"><ele>140.0</ele><time>2026-04-18T14:30:35.756Z</time></trkpt><trkpt lat="44.384145" lon="11.4048511"><ele>140.0</ele><time>2026-04-18T14:30:39.756Z</time></trkpt><trkpt lat="44.3841582" lon="11.4047339"><ele>140.0</ele><time>2026-04-18T14:30:42.756Z</time></trkpt><trkpt lat="44.3841646" lon="11.4046171"><ele>140.0</ele><time>2026-04-18T14:30:44.755Z</time></trkpt><trkpt lat="44.3841718" lon="11.4045244"><ele>140.0</ele><time>2026-04-18T14:30:46.756Z</time></trkpt><trkpt lat="44.3841784" lon="11.4044273"><ele>140.0</ele><time>2026-04-18T14:30:48.756Z</time></trkpt><trkpt lat="44.3841914" lon="11.4043073"><ele>140.0</ele><time>2026-04-18T14:30:51.756Z</time></trkpt><trkpt lat="44.3842019" lon="11.4042084"><ele>139.28571428571428</ele><time>2026-04-18T14:30:54.756Z</time></trkpt><trkpt lat="44.384226" lon="11.4041159"><ele>138.57142857142856</ele><time>2026-04-18T14:30:58.756Z</time></trkpt><trkpt lat="44.3842757" lon="11.4040562"><ele>137.85714285714286</ele><time>2026-04-18T14:31:07.756Z</time></trkpt><trkpt lat="44.384342" lon="11.4040576"><ele>137.14285714285714</ele><time>2026-04-18T14:31:16.755Z</time></trkpt><trkpt lat="44.3844177" lon="11.4040839"><ele>136.42857142857142</ele><time>2026-04-18T14:31:19.755Z</time></trkpt><trkpt lat="44.3844912" lon="11.4041169"><ele>135.71428571428572</ele><time>2026-04-18T14:31:21.755Z</time></trkpt><trkpt lat="44.3845654" lon="11.4041554"><ele>135.0</ele><time>2026-04-18T14:31:23.756Z</time></trkpt><trkpt lat="44.384634" lon="11.4041872"><ele>134.83333333333334</ele><time>2026-04-18T14:31:25.756Z</time></trkpt><trkpt lat="44.3847074" lon="11.4042177"><ele>134.66666666666666</ele><time>2026-04-18T14:31:27.755Z</time></trkpt><trkpt lat="44.3847745" lon="11.4042401"><ele>134.5</ele><time>2026-04-18T14:31:29.755Z</time></trkpt><trkpt lat="44.3848587" lon="11.4042253"><ele>134.33333333333331</ele><time>2026-04-18T14:31:32.756Z</time></trkpt><trkpt lat="44.3849615" lon="11.4041836"><ele>134.16666666666666</ele><time>2026-04-18T14:31:51.755Z</time></trkpt><trkpt lat="44.3850028" lon="11.4041168"><ele>134.0</ele><time>2026-04-18T14:31:55.756Z</time></trkpt><trkpt lat="44.3849457" lon="11.404058"><ele>134.0</ele><time>2026-04-18T14:31:58.756Z</time></trkpt><trkpt lat="44.3848314" lon="11.4040202"><ele>134.0</ele><time>2026-04-18T14:32:00.755Z</time></trkpt><trkpt lat="44.3847585" lon="11.4039851"><ele>134.0</ele><time>2026-04-18T14:32:01.756Z</time></trkpt><trkpt lat="44.3846812" lon="11.4039386"><ele>134.0</ele><time>2026-04-18T14:32:02.756Z</time></trkpt><trkpt lat="44.3845971" lon="11.4038922"><ele>134.0</ele><time>2026-04-18T14:32:03.756Z</time></trkpt><trkpt lat="44.3845098" lon="11.4038504"><ele>134.4</ele><time>2026-04-18T14:32:04.756Z</time></trkpt><trkpt lat="44.3844203" lon="11.4038115"><ele>134.8</ele><time>2026-04-18T14:32:05.756Z</time></trkpt><trkpt lat="44.3843231" lon="11.403767"><ele>135.2</ele><time>2026-04-18T14:32:06.756Z</time></trkpt><trkpt lat="44.3842307" lon="11.4037257"><ele>135.6</ele><time>2026-04-18T14:32:07.756Z</time></trkpt><trkpt lat="44.3841423" lon="11.4036861"><ele>136.0</ele><time>2026-04-18T14:32:08.756Z</time></trkpt><trkpt lat="44.3840549" lon="11.4036449"><ele>136.0</ele><time>2026-04-18T14:32:09.755Z</time></trkpt><trkpt lat="44.3839599" lon="11.4036015"><ele>136.0</ele><time>2026-04-18T14:32:10.756Z</time></trkpt><trkpt lat="44.3838709" lon="11.4035641"><ele>136.0</ele><time>2026-04-18T14:32:11.756Z</time></trkpt><trkpt lat="44.3837818" lon="11.4035244"><ele>136.0</ele><time>2026-04-18T14:32:12.756Z</time></trkpt><trkpt lat="44.3836902" lon="11.4034933"><ele>136.0</ele><time>2026-04-18T14:32:13.755Z</time></trkpt><trkpt lat="44.3835903" lon="11.4034667"><ele>135.6</ele><time>2026-04-18T14:32:14.756Z</time></trkpt><trkpt lat="44.3834881" lon="11.4034415"><ele>135.2</ele><time>2026-04-18T14:32:15.755Z</time></trkpt><trkpt lat="44.3833803" lon="11.4034279"><ele>134.8</ele><time>2026-04-18T14:32:16.755Z</time></trkpt><trkpt lat="44.383276" lon="11.4034381"><ele>134.4</ele><time>2026-04-18T14:32:17.756Z</time></trkpt><trkpt lat="44.3831681" lon="11.4034489"><ele>134.0</ele><time>2026-04-18T14:32:18.755Z</time></trkpt><trkpt lat="44.3830717" lon="11.4034399"><ele>135.0</ele><time>2026-04-18T14:32:19.756Z</time></trkpt><trkpt lat="44.3829802" lon="11.4034239"><ele>136.0</ele><time>2026-04-18T14:32:20.755Z</time></trkpt><trkpt lat="44.3828947" lon="11.4033738"><ele>137.0</ele><time>2026-04-18T14:32:21.755Z</time></trkpt><trkpt lat="44.3828025" lon="11.403289"><ele>138.0</ele><time>2026-04-18T14:32:22.755Z</time></trkpt><trkpt lat="44.3827237" lon="11.4031631"><ele>139.0</ele><time>2026-04-18T14:32:23.755Z</time></trkpt><trkpt lat="44.3826611" lon="11.4030169"><ele>138.0</ele><time>2026-04-18T14:32:24.755Z</time></trkpt><trkpt lat="44.3826002" lon="11.4028786"><ele>137.0</ele><time>2026-04-18T14:32:25.756Z</time></trkpt><trkpt lat="44.3825428" lon="11.4027438"><ele>136.0</ele><time>2026-04-18T14:32:26.755Z</time></trkpt><trkpt lat="44.3824774" lon="11.4026138"><ele>135.0</ele><time>2026-04-18T14:32:27.755Z</time></trkpt><trkpt lat="44.3824184" lon="11.4024849"><ele>135.0</ele><time>2026-04-18T14:32:28.755Z</time></trkpt><trkpt lat="44.382351" lon="11.4023622"><ele>135.0</ele><time>2026-04-18T14:32:29.755Z</time></trkpt><trkpt lat="44.3822832" lon="11.4022199"><ele>135.0</ele><time>2026-04-18T14:32:30.756Z</time></trkpt><trkpt lat="44.3822093" lon="11.4020611"><ele>135.0</ele><time>2026-04-18T14:32:31.756Z</time></trkpt><trkpt lat="44.3821407" lon="11.4018963"><ele>135.25</ele><time>2026-04-18T14:32:32.756Z</time></trkpt><trkpt lat="44.3820742" lon="11.4017543"><ele>135.5</ele><time>2026-04-18T14:32:33.755Z</time></trkpt><trkpt lat="44.382011" lon="11.4016048"><ele>135.75</ele><time>2026-04-18T14:32:34.756Z</time></trkpt><trkpt lat="44.3819498" lon="11.4014451"><ele>136.0</ele><time>2026-04-18T14:32:35.756Z</time></trkpt><trkpt lat="44.3818831" lon="11.4012674"><ele>136.0</ele><time>2026-04-18T14:32:36.756Z</time></trkpt><trkpt lat="44.3818175" lon="11.4011017"><ele>136.0</ele><time>2026-04-18T14:32:37.755Z</time></trkpt><trkpt lat="44.3817426" lon="11.4009479"><ele>136.0</ele><time>2026-04-18T14:32:38.756Z</time></trkpt><trkpt lat="44.3816754" lon="11.4008026"><ele>136.0</ele><time>2026-04-18T14:32:39.756Z</time></trkpt><trkpt lat="44.3816093" lon="11.4006624"><ele>136.0</ele><time>2026-04-18T14:32:40.756Z</time></trkpt><trkpt lat="44.3815496" lon="11.400537"><ele>136.0</ele><time>2026-04-18T14:32:41.756Z</time></trkpt><trkpt lat="44.3814867" lon="11.4004094"><ele>136.0</ele><time>2026-04-18T14:32:42.755Z</time></trkpt><trkpt lat="44.3814281" lon="11.400289"><ele>136.0</ele><time>2026-04-18T14:32:43.756Z</time></trkpt><trkpt lat="44.3813639" lon="11.4001791"><ele>136.0</ele><time>2026-04-18T14:32:44.756Z</time></trkpt><trkpt lat="44.3812928" lon="11.4000839"><ele>137.0</ele><time>2026-04-18T14:32:45.755Z</time></trkpt><trkpt lat="44.3811914" lon="11.4000075"><ele>138.0</ele><time>2026-04-18T14:32:46.755Z</time></trkpt><trkpt lat="44.3810762" lon="11.3999549"><ele>139.0</ele><time>2026-04-18T14:32:47.756Z</time></trkpt><trkpt lat="44.3809566" lon="11.3999055"><ele>140.0</ele><time>2026-04-18T14:32:48.755Z</time></trkpt><trkpt lat="44.3808324" lon="11.3998729"><ele>140.0</ele><time>2026-04-18T14:32:49.756Z</time></trkpt><trkpt lat="44.3807164" lon="11.3998478"><ele>140.0</ele><time>2026-04-18T14:32:50.756Z</time></trkpt><trkpt lat="44.3806085" lon="11.3998212"><ele>140.0</ele><time>2026-04-18T14:32:51.756Z</time></trkpt><trkpt lat="44.3805072" lon="11.399798"><ele>140.0</ele><time>2026-04-18T14:32:52.755Z</time></trkpt><trkpt lat="44.3804062" lon="11.3997872"><ele>140.0</ele><time>2026-04-18T14:32:53.755Z</time></trkpt><trkpt lat="44.3803087" lon="11.3997885"><ele>141.0</ele><time>2026-04-18T14:32:54.755Z</time></trkpt><trkpt lat="44.3802178" lon="11.3998059"><ele>142.0</ele><time>2026-04-18T14:32:55.756Z</time></trkpt><trkpt lat="44.3801431" lon="11.3998609"><ele>143.0</ele><time>2026-04-18T14:32:56.755Z</time></trkpt><trkpt lat="44.3800687" lon="11.3999408"><ele>144.0</ele><time>2026-04-18T14:32:57.755Z</time></trkpt><trkpt lat="44.3800181" lon="11.4000446"><ele>145.0</ele><time>2026-04-18T14:32:58.755Z</time></trkpt><trkpt lat="44.379974" lon="11.4001726"><ele>145.0</ele><time>2026-04-18T14:32:59.756Z</time></trkpt><trkpt lat="44.3799395" lon="11.400316"><ele>145.0</ele><time>2026-04-18T14:33:00.755Z</time></trkpt><trkpt lat="44.3799283" lon="11.4004588"><ele>145.0</ele><time>2026-04-18T14:33:01.755Z</time></trkpt><trkpt lat="44.3799279" lon="11.4006233"><ele>145.0</ele><time>2026-04-18T14:33:02.756Z</time></trkpt><trkpt lat="44.3799374" lon="11.4007924"><ele>144.0</ele><time>2026-04-18T14:33:03.756Z</time></trkpt><trkpt lat="44.3799609" lon="11.4009694"><ele>143.0</ele><time>2026-04-18T14:33:04.755Z</time></trkpt><trkpt lat="44.3799815" lon="11.4011373"><ele>142.0</ele><time>2026-04-18T14:33:05.755Z</time></trkpt><trkpt lat="44.3800092" lon="11.401293"><ele>141.0</ele><time>2026-04-18T14:33:06.755Z</time></trkpt><trkpt lat="44.3800265" lon="11.4014446"><ele>141.0</ele><time>2026-04-18T14:33:07.755Z</time></trkpt><trkpt lat="44.3800279" lon="11.401589"><ele>141.0</ele><time>2026-04-18T14:33:08.756Z</time></trkpt><trkpt lat="44.3800134" lon="11.4017407"><ele>141.0</ele><time>2026-04-18T14:33:09.755Z</time></trkpt><trkpt lat="44.3799804" lon="11.4018901"><ele>141.0</ele><time>2026-04-18T14:33:10.755Z</time></trkpt><trkpt lat="44.3799353" lon="11.4020333"><ele>141.0</ele><time>2026-04-18T14:33:11.755Z</time></trkpt><trkpt lat="44.3798777" lon="11.4021779"><ele>141.0</ele><time>2026-04-18T14:33:12.756Z</time></trkpt><trkpt lat="44.3798029" lon="11.4023236"><ele>141.0</ele><time>2026-04-18T14:33:13.756Z</time></trkpt><trkpt lat="44.3797066" lon="11.4024511"><ele>141.0</ele><time>2026-04-18T14:33:14.756Z</time></trkpt><trkpt lat="44.3795892" lon="11.4025737"><ele>141.0</ele><time>2026-04-18T14:33:15.755Z</time></trkpt><trkpt lat="44.3794759" lon="11.4026818"><ele>141.0</ele><time>2026-04-18T14:33:16.755Z</time></trkpt><trkpt lat="44.379388" lon="11.4027845"><ele>141.0</ele><time>2026-04-18T14:33:17.755Z</time></trkpt><trkpt lat="44.3793117" lon="11.402879"><ele>141.0</ele><time>2026-04-18T14:33:18.755Z</time></trkpt><trkpt lat="44.3792115" lon="11.402953"><ele>141.0</ele><time>2026-04-18T14:33:19.755Z</time></trkpt><trkpt lat="44.3790923" lon="11.40301"><ele>141.0</ele><time>2026-04-18T14:33:20.756Z</time></trkpt><trkpt lat="44.378965" lon="11.4030448"><ele>141.0</ele><time>2026-04-18T14:33:21.755Z</time></trkpt><trkpt lat="44.3788301" lon="11.4030922"><ele>141.0</ele><time>2026-04-18T14:33:22.756Z</time></trkpt><trkpt lat="44.3787032" lon="11.4031516"><ele>141.0</ele><time>2026-04-18T14:33:23.756Z</time></trkpt><trkpt lat="44.3785784" lon="11.4032123"><ele>141.75</ele><time>2026-04-18T14:33:24.755Z</time></trkpt><trkpt lat="44.3784537" lon="11.4032621"><ele>142.5</ele><time>2026-04-18T14:33:25.756Z</time></trkpt><trkpt lat="44.3783245" lon="11.4032913"><ele>143.25</ele><time>2026-04-18T14:33:26.756Z</time></trkpt><trkpt lat="44.3781867" lon="11.4032935"><ele>144.0</ele><time>2026-04-18T14:33:27.756Z</time></trkpt><trkpt lat="44.3780341" lon="11.4032397"><ele>144.75</ele><time>2026-04-18T14:33:28.755Z</time></trkpt><trkpt lat="44.3778863" lon="11.4031836"><ele>145.5</ele><time>2026-04-18T14:33:29.755Z</time></trkpt><trkpt lat="44.3777592" lon="11.4031115"><ele>146.25</ele><time>2026-04-18T14:33:30.755Z</time></trkpt><trkpt lat="44.3776343" lon="11.4030672"><ele>147.0</ele><time>2026-04-18T14:33:31.755Z</time></trkpt><trkpt lat="44.3775313" lon="11.4030343"><ele>147.0</ele><time>2026-04-18T14:33:32.755Z</time></trkpt><trkpt lat="44.3774321" lon="11.4030403"><ele>147.0</ele><time>2026-04-18T14:33:33.756Z</time></trkpt><trkpt lat="44.3773434" lon="11.4030819"><ele>147.0</ele><time>2026-04-18T14:33:34.755Z</time></trkpt><trkpt lat="44.3772666" lon="11.4031577"><ele>147.0</ele><time>2026-04-18T14:33:35.756Z</time></trkpt><trkpt lat="44.3771978" lon="11.4032706"><ele>147.0</ele><time>2026-04-18T14:33:36.755Z</time></trkpt><trkpt lat="44.3771418" lon="11.4033905"><ele>147.79999999999998</ele><time>2026-04-18T14:33:37.755Z</time></trkpt><trkpt lat="44.3771138" lon="11.4035393"><ele>148.6</ele><time>2026-04-18T14:33:38.756Z</time></trkpt><trkpt lat="44.3771048" lon="11.4036811"><ele>149.39999999999998</ele><time>2026-04-18T14:33:39.755Z</time></trkpt><trkpt lat="44.3771388" lon="11.4038016"><ele>150.2</ele><time>2026-04-18T14:33:40.756Z</time></trkpt><trkpt lat="44.3771851" lon="11.4038912"><ele>151.0</ele><time>2026-04-18T14:33:41.756Z</time></trkpt><trkpt lat="44.377232" lon="11.4039798"><ele>151.0</ele><time>2026-04-18T14:33:42.756Z</time></trkpt><trkpt lat="44.3772748" lon="11.4040626"><ele>151.0</ele><time>2026-04-18T14:33:43.755Z</time></trkpt><trkpt lat="44.377308" lon="11.4041507"><ele>151.0</ele><time>2026-04-18T14:33:44.756Z</time></trkpt><trkpt lat="44.3773321" lon="11.4042735"><ele>151.0</ele><time>2026-04-18T14:33:45.755Z</time></trkpt><trkpt lat="44.3773447" lon="11.4044107"><ele>151.0</ele><time>2026-04-18T14:33:46.756Z</time></trkpt><trkpt lat="44.3773412" lon="11.4045519"><ele>151.0</ele><time>2026-04-18T14:33:47.755Z</time></trkpt><trkpt lat="44.3773193" lon="11.4046943"><ele>152.0</ele><time>2026-04-18T14:33:48.756Z</time></trkpt><trkpt lat="44.3772754" lon="11.4048295"><ele>153.0</ele><time>2026-04-18T14:33:49.756Z</time></trkpt><trkpt lat="44.3772124" lon="11.404962"><ele>154.0</ele><time>2026-04-18T14:33:50.756Z</time></trkpt><trkpt lat="44.3771287" lon="11.4050745"><ele>155.0</ele><time>2026-04-18T14:33:51.755Z</time></trkpt><trkpt lat="44.3770296" lon="11.4051625"><ele>155.4</ele><time>2026-04-18T14:33:52.756Z</time></trkpt><trkpt lat="44.376933" lon="11.4052232"><ele>155.8</ele><time>2026-04-18T14:33:53.756Z</time></trkpt><trkpt lat="44.3768223" lon="11.4052463"><ele>156.2</ele><time>2026-04-18T14:33:54.755Z</time></trkpt><trkpt lat="44.3767037" lon="11.4052418"><ele>156.6</ele><time>2026-04-18T14:33:55.755Z</time></trkpt><trkpt lat="44.3765931" lon="11.4052281"><ele>157.0</ele><time>2026-04-18T14:33:56.755Z</time></trkpt><trkpt lat="44.3764729" lon="11.4052069"><ele>157.0</ele><time>2026-04-18T14:33:57.755Z</time></trkpt><trkpt lat="44.3763533" lon="11.4051907"><ele>157.0</ele><time>2026-04-18T14:33:58.754Z</time></trkpt><trkpt lat="44.3762287" lon="11.4051664"><ele>157.0</ele><time>2026-04-18T14:33:59.755Z</time></trkpt><trkpt lat="44.3761148" lon="11.4051448"><ele>157.0</ele><time>2026-04-18T14:34:00.754Z</time></trkpt><trkpt lat="44.376009" lon="11.4051322"><ele>159.6</ele><time>2026-04-18T14:34:01.754Z</time></trkpt><trkpt lat="44.3759113" lon="11.4051165"><ele>162.2</ele><time>2026-04-18T14:34:02.755Z</time></trkpt><trkpt lat="44.3758043" lon="11.4051008"><ele>164.8</ele><time>2026-04-18T14:34:03.754Z</time></trkpt><trkpt lat="44.3757006" lon="11.4050862"><ele>167.4</ele><time>2026-04-18T14:34:04.755Z</time></trkpt><trkpt lat="44.3756008" lon="11.405074"><ele>170.0</ele><time>2026-04-18T14:34:05.754Z</time></trkpt><trkpt lat="44.3754904" lon="11.4050577"><ele>171.75</ele><time>2026-04-18T14:34:06.754Z</time></trkpt><trkpt lat="44.3753755" lon="11.4050527"><ele>173.5</ele><time>2026-04-18T14:34:07.755Z</time></trkpt><trkpt lat="44.3752609" lon="11.4050615"><ele>175.25</ele><time>2026-04-18T14:34:08.755Z</time></trkpt><trkpt lat="44.3751456" lon="11.4050702"><ele>177.0</ele><time>2026-04-18T14:34:09.755Z</time></trkpt><trkpt lat="44.3750197" lon="11.4050861"><ele>177.0</ele><time>2026-04-18T14:34:10.754Z</time></trkpt><trkpt lat="44.3748945" lon="11.4050998"><ele>177.0</ele><time>2026-04-18T14:34:11.754Z</time></trkpt><trkpt lat="44.374765" lon="11.4051065"><ele>177.0</ele><time>2026-04-18T14:34:12.755Z</time></trkpt><trkpt lat="44.3746324" lon="11.4051152"><ele>177.0</ele><time>2026-04-18T14:34:13.754Z</time></trkpt><trkpt lat="44.3745055" lon="11.4051342"><ele>177.0</ele><time>2026-04-18T14:34:14.754Z</time></trkpt><trkpt lat="44.3743806" lon="11.4051557"><ele>177.0</ele><time>2026-04-18T14:34:15.755Z</time></trkpt><trkpt lat="44.3742633" lon="11.4051827"><ele>177.0</ele><time>2026-04-18T14:34:16.755Z</time></trkpt><trkpt lat="44.37415" lon="11.4052087"><ele>177.0</ele><time>2026-04-18T14:34:17.755Z</time></trkpt><trkpt lat="44.3740344" lon="11.4052288"><ele>177.0</ele><time>2026-04-18T14:34:18.755Z</time></trkpt><trkpt lat="44.3739208" lon="11.4052291"><ele>177.0</ele><time>2026-04-18T14:34:19.755Z</time></trkpt><trkpt lat="44.373803" lon="11.4052005"><ele>177.0</ele><time>2026-04-18T14:34:20.754Z</time></trkpt><trkpt lat="44.3736772" lon="11.4051568"><ele>177.0</ele><time>2026-04-18T14:34:21.754Z</time></trkpt><trkpt lat="44.373553" lon="11.4051088"><ele>173.75</ele><time>2026-04-18T14:34:22.755Z</time></trkpt><trkpt lat="44.3734265" lon="11.4050631"><ele>170.5</ele><time>2026-04-18T14:34:23.754Z</time></trkpt><trkpt lat="44.3733017" lon="11.4050072"><ele>167.25</ele><time>2026-04-18T14:34:24.755Z</time></trkpt><trkpt lat="44.3731856" lon="11.4049095"><ele>164.0</ele><time>2026-04-18T14:34:25.755Z</time></trkpt><trkpt lat="44.3730788" lon="11.4048062"><ele>162.5</ele><time>2026-04-18T14:34:26.755Z</time></trkpt><trkpt lat="44.3729887" lon="11.4046926"><ele>161.0</ele><time>2026-04-18T14:34:27.755Z</time></trkpt><trkpt lat="44.3729137" lon="11.4045564"><ele>159.5</ele><time>2026-04-18T14:34:28.755Z</time></trkpt><trkpt lat="44.3728395" lon="11.4043913"><ele>158.0</ele><time>2026-04-18T14:34:29.754Z</time></trkpt><trkpt lat="44.3727953" lon="11.4042112"><ele>158.0</ele><time>2026-04-18T14:34:30.755Z</time></trkpt><trkpt lat="44.3727692" lon="11.4040401"><ele>158.0</ele><time>2026-04-18T14:34:31.755Z</time></trkpt><trkpt lat="44.3727345" lon="11.4038859"><ele>158.0</ele><time>2026-04-18T14:34:32.754Z</time></trkpt><trkpt lat="44.3726816" lon="11.4037467"><ele>158.0</ele><time>2026-04-18T14:34:33.755Z</time></trkpt><trkpt lat="44.3726171" lon="11.4036493"><ele>158.0</ele><time>2026-04-18T14:34:34.755Z</time></trkpt><trkpt lat="44.3725323" lon="11.4035702"><ele>157.75</ele><time>2026-04-18T14:34:35.754Z</time></trkpt><trkpt lat="44.3724224" lon="11.4035209"><ele>157.5</ele><time>2026-04-18T14:34:36.754Z</time></trkpt><trkpt lat="44.372311" lon="11.4034845"><ele>157.25</ele><time>2026-04-18T14:34:37.754Z</time></trkpt><trkpt lat="44.3722019" lon="11.403465"><ele>157.0</ele><time>2026-04-18T14:34:38.754Z</time></trkpt><trkpt lat="44.3720809" lon="11.4034505"><ele>157.0</ele><time>2026-04-18T14:34:39.754Z</time></trkpt><trkpt lat="44.3719678" lon="11.4034527"><ele>157.0</ele><time>2026-04-18T14:34:40.755Z</time></trkpt><trkpt lat="44.3718396" lon="11.4034637"><ele>157.0</ele><time>2026-04-18T14:34:41.754Z</time></trkpt><trkpt lat="44.3717119" lon="11.4034567"><ele>157.0</ele><time>2026-04-18T14:34:42.754Z</time></trkpt><trkpt lat="44.3715781" lon="11.40345"><ele>157.0</ele><time>2026-04-18T14:34:43.755Z</time></trkpt><trkpt lat="44.3714451" lon="11.4034436"><ele>157.0</ele><time>2026-04-18T14:34:44.754Z</time></trkpt><trkpt lat="44.3713087" lon="11.4034396"><ele>157.0</ele><time>2026-04-18T14:34:45.754Z</time></trkpt><trkpt lat="44.3711641" lon="11.4034339"><ele>157.0</ele><time>2026-04-18T14:34:46.755Z</time></trkpt><trkpt lat="44.3710188" lon="11.4034333"><ele>157.25</ele><time>2026-04-18T14:34:47.754Z</time></trkpt><trkpt lat="44.3708724" lon="11.4034355"><ele>157.5</ele><time>2026-04-18T14:34:48.755Z</time></trkpt><trkpt lat="44.370728" lon="11.4034256"><ele>157.75</ele><time>2026-04-18T14:34:49.755Z</time></trkpt><trkpt lat="44.3705785" lon="11.4034062"><ele>158.0</ele><time>2026-04-18T14:34:50.755Z</time></trkpt><trkpt lat="44.3704238" lon="11.4033922"><ele>158.0</ele><time>2026-04-18T14:34:51.755Z</time></trkpt><trkpt lat="44.3702529" lon="11.4033807"><ele>158.0</ele><time>2026-04-18T14:34:52.754Z</time></trkpt><trkpt lat="44.3700901" lon="11.4033666"><ele>158.0</ele><time>2026-04-18T14:34:53.755Z</time></trkpt><trkpt lat="44.3699387" lon="11.4033637"><ele>158.0</ele><time>2026-04-18T14:34:54.755Z</time></trkpt><trkpt lat="44.3698083" lon="11.403373"><ele>158.0</ele><time>2026-04-18T14:34:55.755Z</time></trkpt><trkpt lat="44.3696849" lon="11.4033923"><ele>158.0</ele><time>2026-04-18T14:34:56.755Z</time></trkpt><trkpt lat="44.3695749" lon="11.4034048"><ele>158.0</ele><time>2026-04-18T14:34:57.754Z</time></trkpt><trkpt lat="44.3694717" lon="11.403418"><ele>158.0</ele><time>2026-04-18T14:34:58.754Z</time></trkpt><trkpt lat="44.3693728" lon="11.4034332"><ele>158.0</ele><time>2026-04-18T14:34:59.755Z</time></trkpt><trkpt lat="44.3692751" lon="11.4034445"><ele>158.0</ele><time>2026-04-18T14:35:00.754Z</time></trkpt><trkpt lat="44.3691744" lon="11.4034483"><ele>158.0</ele><time>2026-04-18T14:35:01.755Z</time></trkpt><trkpt lat="44.3690714" lon="11.4033991"><ele>158.0</ele><time>2026-04-18T14:35:02.755Z</time></trkpt><trkpt lat="44.3689968" lon="11.4033062"><ele>158.0</ele><time>2026-04-18T14:35:03.754Z</time></trkpt><trkpt lat="44.3689425" lon="11.4031842"><ele>158.0</ele><time>2026-04-18T14:35:04.755Z</time></trkpt><trkpt lat="44.3689079" lon="11.4029943"><ele>158.0</ele><time>2026-04-18T14:35:05.754Z</time></trkpt><trkpt lat="44.3688877" lon="11.402792"><ele>158.0</ele><time>2026-04-18T14:35:06.755Z</time></trkpt><trkpt lat="44.3688798" lon="11.402572"><ele>158.5</ele><time>2026-04-18T14:35:07.754Z</time></trkpt><trkpt lat="44.3688804" lon="11.4023703"><ele>159.0</ele><time>2026-04-18T14:35:08.755Z</time></trkpt><trkpt lat="44.3688817" lon="11.4021926"><ele>159.5</ele><time>2026-04-18T14:35:09.754Z</time></trkpt><trkpt lat="44.368881" lon="11.402039"><ele>160.0</ele><time>2026-04-18T14:35:10.755Z</time></trkpt><trkpt lat="44.3688745" lon="11.4018808"><ele>160.4</ele><time>2026-04-18T14:35:11.755Z</time></trkpt><trkpt lat="44.3688638" lon="11.4017459"><ele>160.8</ele><time>2026-04-18T14:35:12.754Z</time></trkpt><trkpt lat="44.3688406" lon="11.4016243"><ele>161.2</ele><time>2026-04-18T14:35:13.755Z</time></trkpt><trkpt lat="44.3687912" lon="11.4015144"><ele>161.6</ele><time>2026-04-18T14:35:14.755Z</time></trkpt><trkpt lat="44.368719" lon="11.4014259"><ele>162.0</ele><time>2026-04-18T14:35:15.755Z</time></trkpt><trkpt lat="44.3686229" lon="11.4013674"><ele>162.0</ele><time>2026-04-18T14:35:16.755Z</time></trkpt><trkpt lat="44.3685199" lon="11.401342"><ele>162.0</ele><time>2026-04-18T14:35:17.755Z</time></trkpt><trkpt lat="44.3684171" lon="11.4013459"><ele>162.0</ele><time>2026-04-18T14:35:18.754Z</time></trkpt><trkpt lat="44.3683027" lon="11.4013424"><ele>162.0</ele><time>2026-04-18T14:35:19.754Z</time></trkpt><trkpt lat="44.3681891" lon="11.4013585"><ele>162.0</ele><time>2026-04-18T14:35:20.755Z</time></trkpt><trkpt lat="44.3680754" lon="11.4013844"><ele>162.25</ele><time>2026-04-18T14:35:21.754Z</time></trkpt><trkpt lat="44.3679561" lon="11.4014154"><ele>162.5</ele><time>2026-04-18T14:35:22.754Z</time></trkpt><trkpt lat="44.3678371" lon="11.4014481"><ele>162.75</ele><time>2026-04-18T14:35:23.755Z</time></trkpt><trkpt lat="44.3677205" lon="11.4014794"><ele>163.0</ele><time>2026-04-18T14:35:24.754Z</time></trkpt><trkpt lat="44.3676009" lon="11.4015138"><ele>163.0</ele><time>2026-04-18T14:35:25.754Z</time></trkpt><trkpt lat="44.3674809" lon="11.4015472"><ele>163.0</ele><time>2026-04-18T14:35:26.755Z</time></trkpt><trkpt lat="44.3673598" lon="11.4015789"><ele>163.0</ele><time>2026-04-18T14:35:27.754Z</time></trkpt><trkpt lat="44.3672377" lon="11.4016248"><ele>163.0</ele><time>2026-04-18T14:35:28.754Z</time></trkpt><trkpt lat="44.3671211" lon="11.4016908"><ele>164.0</ele><time>2026-04-18T14:35:29.755Z</time></trkpt><trkpt lat="44.3670066" lon="11.4017723"><ele>165.0</ele><time>2026-04-18T14:35:30.755Z</time></trkpt><trkpt lat="44.3669039" lon="11.4018663"><ele>166.0</ele><time>2026-04-18T14:35:31.754Z</time></trkpt><trkpt lat="44.3668108" lon="11.4019422"><ele>167.0</ele><time>2026-04-18T14:35:32.755Z</time></trkpt><trkpt lat="44.366722" lon="11.4020194"><ele>167.0</ele><time>2026-04-18T14:35:33.754Z</time></trkpt><trkpt lat="44.3666213" lon="11.4020841"><ele>167.0</ele><time>2026-04-18T14:35:34.755Z</time></trkpt><trkpt lat="44.3665108" lon="11.40214"><ele>167.0</ele><time>2026-04-18T14:35:35.754Z</time></trkpt><trkpt lat="44.3663886" lon="11.4021709"><ele>167.0</ele><time>2026-04-18T14:35:36.755Z</time></trkpt><trkpt lat="44.366271" lon="11.4021852"><ele>166.75</ele><time>2026-04-18T14:35:37.754Z</time></trkpt><trkpt lat="44.3661539" lon="11.4021885"><ele>166.5</ele><time>2026-04-18T14:35:38.754Z</time></trkpt><trkpt lat="44.3660381" lon="11.4021734"><ele>166.25</ele><time>2026-04-18T14:35:39.755Z</time></trkpt><trkpt lat="44.3659203" lon="11.4021241"><ele>166.0</ele><time>2026-04-18T14:35:40.754Z</time></trkpt><trkpt lat="44.3658051" lon="11.4020532"><ele>171.75</ele><time>2026-04-18T14:35:41.754Z</time></trkpt><trkpt lat="44.365696" lon="11.4019834"><ele>177.5</ele><time>2026-04-18T14:35:42.754Z</time></trkpt><trkpt lat="44.3655907" lon="11.401916"><ele>183.25</ele><time>2026-04-18T14:35:43.755Z</time></trkpt><trkpt lat="44.3654904" lon="11.4018445"><ele>189.0</ele><time>2026-04-18T14:35:44.755Z</time></trkpt><trkpt lat="44.3653938" lon="11.401801"><ele>189.0</ele><time>2026-04-18T14:35:45.755Z</time></trkpt><trkpt lat="44.3652813" lon="11.4018026"><ele>189.0</ele><time>2026-04-18T14:35:46.755Z</time></trkpt><trkpt lat="44.3651442" lon="11.4018393"><ele>189.0</ele><time>2026-04-18T14:35:47.754Z</time></trkpt><trkpt lat="44.3650081" lon="11.4019045"><ele>189.0</ele><time>2026-04-18T14:35:48.755Z</time></trkpt><trkpt lat="44.3648792" lon="11.4019875"><ele>189.0</ele><time>2026-04-18T14:35:49.755Z</time></trkpt><trkpt lat="44.3647482" lon="11.4020578"><ele>189.0</ele><time>2026-04-18T14:35:50.754Z</time></trkpt><trkpt lat="44.3646393" lon="11.4021101"><ele>189.0</ele><time>2026-04-18T14:35:51.755Z</time></trkpt><trkpt lat="44.3645398" lon="11.4021193"><ele>189.0</ele><time>2026-04-18T14:35:52.755Z</time></trkpt><trkpt lat="44.3644333" lon="11.4021106"><ele>188.39999999999998</ele><time>2026-04-18T14:35:53.755Z</time></trkpt><trkpt lat="44.3643331" lon="11.4020754"><ele>187.8</ele><time>2026-04-18T14:35:54.754Z</time></trkpt><trkpt lat="44.3642326" lon="11.402025"><ele>187.2</ele><time>2026-04-18T14:35:55.754Z</time></trkpt><trkpt lat="44.3641448" lon="11.401961"><ele>186.60000000000002</ele><time>2026-04-18T14:35:56.754Z</time></trkpt><trkpt lat="44.3640621" lon="11.401885"><ele>186.0</ele><time>2026-04-18T14:35:57.754Z</time></trkpt><trkpt lat="44.363962" lon="11.4018309"><ele>185.20000000000002</ele><time>2026-04-18T14:35:58.754Z</time></trkpt><trkpt lat="44.3638602" lon="11.4018016"><ele>184.4</ele><time>2026-04-18T14:35:59.754Z</time></trkpt><trkpt lat="44.3637547" lon="11.4017927"><ele>183.6</ele><time>2026-04-18T14:36:00.755Z</time></trkpt><trkpt lat="44.3636502" lon="11.4017755"><ele>182.8</ele><time>2026-04-18T14:36:01.755Z</time></trkpt><trkpt lat="44.3635514" lon="11.401752"><ele>182.0</ele><time>2026-04-18T14:36:02.754Z</time></trkpt><trkpt lat="44.3634595" lon="11.4016833"><ele>182.0</ele><time>2026-04-18T14:36:03.754Z</time></trkpt><trkpt lat="44.3633714" lon="11.4015862"><ele>182.0</ele><time>2026-04-18T14:36:04.754Z</time></trkpt><trkpt lat="44.3632828" lon="11.4014739"><ele>182.0</ele><time>2026-04-18T14:36:05.755Z</time></trkpt><trkpt lat="44.3631924" lon="11.4013925"><ele>182.0</ele><time>2026-04-18T14:36:06.755Z</time></trkpt><trkpt lat="44.3631012" lon="11.4013488"><ele>182.0</ele><time>2026-04-18T14:36:07.755Z</time></trkpt><trkpt lat="44.3630104" lon="11.4013176"><ele>184.39999999999998</ele><time>2026-04-18T14:36:08.755Z</time></trkpt><trkpt lat="44.3629168" lon="11.4013064"><ele>186.79999999999998</ele><time>2026-04-18T14:36:09.754Z</time></trkpt><trkpt lat="44.3628282" lon="11.4012959"><ele>189.2</ele><time>2026-04-18T14:36:10.754Z</time></trkpt><trkpt lat="44.3627408" lon="11.4012615"><ele>191.6</ele><time>2026-04-18T14:36:11.754Z</time></trkpt><trkpt lat="44.3626548" lon="11.4012202"><ele>194.0</ele><time>2026-04-18T14:36:12.755Z</time></trkpt><trkpt lat="44.3625661" lon="11.4011676"><ele>194.0</ele><time>2026-04-18T14:36:13.755Z</time></trkpt><trkpt lat="44.362476" lon="11.401123"><ele>194.0</ele><time>2026-04-18T14:36:14.754Z</time></trkpt><trkpt lat="44.3623788" lon="11.401097"><ele>194.0</ele><time>2026-04-18T14:36:15.754Z</time></trkpt><trkpt lat="44.36228" lon="11.4011139"><ele>194.0</ele><time>2026-04-18T14:36:16.754Z</time></trkpt><trkpt lat="44.3621831" lon="11.4011662"><ele>194.0</ele><time>2026-04-18T14:36:17.754Z</time></trkpt><trkpt lat="44.3621059" lon="11.401226"><ele>191.00000000000003</ele><time>2026-04-18T14:36:18.755Z</time></trkpt><trkpt lat="44.3620258" lon="11.401253"><ele>188.0</ele><time>2026-04-18T14:36:19.754Z</time></trkpt><trkpt lat="44.361916" lon="11.4012163"><ele>185.0</ele><time>2026-04-18T14:36:21.754Z</time></trkpt><trkpt lat="44.3618881" lon="11.4011301"><ele>182.0</ele><time>2026-04-18T14:36:22.755Z</time></trkpt><trkpt lat="44.3618728" lon="11.4010124"><ele>179.0</ele><time>2026-04-18T14:36:23.754Z</time></trkpt><trkpt lat="44.3618674" lon="11.4008716"><ele>176.0</ele><time>2026-04-18T14:36:24.755Z</time></trkpt><trkpt lat="44.3618692" lon="11.4007154"><ele>176.0</ele><time>2026-04-18T14:36:25.754Z</time></trkpt><trkpt lat="44.3618694" lon="11.4005722"><ele>176.0</ele><time>2026-04-18T14:36:26.755Z</time></trkpt><trkpt lat="44.3618685" lon="11.4004539"><ele>176.0</ele><time>2026-04-18T14:36:27.755Z</time></trkpt><trkpt lat="44.3618768" lon="11.4003395"><ele>176.0</ele><time>2026-04-18T14:36:28.755Z</time></trkpt><trkpt lat="44.3619176" lon="11.4002102"><ele>176.0</ele><time>2026-04-18T14:36:29.755Z</time></trkpt><trkpt lat="44.3619726" lon="11.4000833"><ele>176.33333333333331</ele><time>2026-04-18T14:36:30.754Z</time></trkpt><trkpt lat="44.3620075" lon="11.3999675"><ele>176.66666666666666</ele><time>2026-04-18T14:36:31.754Z</time></trkpt><trkpt lat="44.3620209" lon="11.399848"><ele>177.0</ele><time>2026-04-18T14:36:32.754Z</time></trkpt><trkpt lat="44.3620049" lon="11.3997399"><ele>177.33333333333334</ele><time>2026-04-18T14:36:33.754Z</time></trkpt><trkpt lat="44.3619565" lon="11.3996558"><ele>177.66666666666669</ele><time>2026-04-18T14:36:34.754Z</time></trkpt><trkpt lat="44.3618838" lon="11.3995649"><ele>178.0</ele><time>2026-04-18T14:36:35.755Z</time></trkpt><trkpt lat="44.3617897" lon="11.3994662"><ele>177.0</ele><time>2026-04-18T14:36:36.755Z</time></trkpt><trkpt lat="44.3616825" lon="11.3993462"><ele>176.0</ele><time>2026-04-18T14:36:37.754Z</time></trkpt><trkpt lat="44.3615674" lon="11.3992156"><ele>175.0</ele><time>2026-04-18T14:36:38.754Z</time></trkpt><trkpt lat="44.3614462" lon="11.3990747"><ele>174.0</ele><time>2026-04-18T14:36:39.755Z</time></trkpt><trkpt lat="44.3613322" lon="11.3989446"><ele>177.5</ele><time>2026-04-18T14:36:40.754Z</time></trkpt><trkpt lat="44.3612166" lon="11.3988201"><ele>181.0</ele><time>2026-04-18T14:36:41.754Z</time></trkpt><trkpt lat="44.3611063" lon="11.3987014"><ele>184.5</ele><time>2026-04-18T14:36:42.755Z</time></trkpt><trkpt lat="44.3609914" lon="11.3985947"><ele>188.0</ele><time>2026-04-18T14:36:43.755Z</time></trkpt><trkpt lat="44.3608913" lon="11.3984899"><ele>188.0</ele><time>2026-04-18T14:36:44.755Z</time></trkpt><trkpt lat="44.360804" lon="11.3983908"><ele>188.0</ele><time>2026-04-18T14:36:45.755Z</time></trkpt><trkpt lat="44.3607335" lon="11.3982831"><ele>188.0</ele><time>2026-04-18T14:36:46.755Z</time></trkpt><trkpt lat="44.3606639" lon="11.3981575"><ele>188.0</ele><time>2026-04-18T14:36:47.755Z</time></trkpt><trkpt lat="44.3606065" lon="11.3980232"><ele>188.0</ele><time>2026-04-18T14:36:48.755Z</time></trkpt><trkpt lat="44.3605318" lon="11.3978866"><ele>187.5</ele><time>2026-04-18T14:36:49.755Z</time></trkpt><trkpt lat="44.3604302" lon="11.3977764"><ele>187.0</ele><time>2026-04-18T14:36:50.755Z</time></trkpt><trkpt lat="44.3603009" lon="11.3976626"><ele>186.5</ele><time>2026-04-18T14:36:51.755Z</time></trkpt><trkpt lat="44.3601734" lon="11.3975498"><ele>186.0</ele><time>2026-04-18T14:36:52.754Z</time></trkpt><trkpt lat="44.3600423" lon="11.3974314"><ele>186.0</ele><time>2026-04-18T14:36:53.755Z</time></trkpt><trkpt lat="44.3599096" lon="11.3973145"><ele>186.0</ele><time>2026-04-18T14:36:54.755Z</time></trkpt><trkpt lat="44.3597784" lon="11.3971988"><ele>186.0</ele><time>2026-04-18T14:36:55.755Z</time></trkpt><trkpt lat="44.3596418" lon="11.3970733"><ele>187.75</ele><time>2026-04-18T14:36:56.754Z</time></trkpt><trkpt lat="44.3595227" lon="11.3969519"><ele>189.5</ele><time>2026-04-18T14:36:57.755Z</time></trkpt><trkpt lat="44.3594109" lon="11.396851"><ele>191.25</ele><time>2026-04-18T14:36:58.754Z</time></trkpt><trkpt lat="44.3593131" lon="11.3967653"><ele>193.0</ele><time>2026-04-18T14:36:59.755Z</time></trkpt><trkpt lat="44.3592203" lon="11.3966873"><ele>193.0</ele><time>2026-04-18T14:37:00.755Z</time></trkpt><trkpt lat="44.3591351" lon="11.3965931"><ele>193.0</ele><time>2026-04-18T14:37:01.755Z</time></trkpt><trkpt lat="44.3590549" lon="11.3964788"><ele>193.0</ele><time>2026-04-18T14:37:02.754Z</time></trkpt><trkpt lat="44.3589872" lon="11.3963515"><ele>193.0</ele><time>2026-04-18T14:37:03.754Z</time></trkpt><trkpt lat="44.3589192" lon="11.3962134"><ele>192.75</ele><time>2026-04-18T14:37:04.754Z</time></trkpt><trkpt lat="44.3588035" lon="11.3960821"><ele>192.5</ele><time>2026-04-18T14:37:05.754Z</time></trkpt><trkpt lat="44.3586782" lon="11.3959809"><ele>192.25</ele><time>2026-04-18T14:37:06.755Z</time></trkpt><trkpt lat="44.3585703" lon="11.3958843"><ele>192.0</ele><time>2026-04-18T14:37:07.754Z</time></trkpt><trkpt lat="44.3584894" lon="11.3957947"><ele>192.0</ele><time>2026-04-18T14:37:08.754Z</time></trkpt><trkpt lat="44.3584187" lon="11.395704"><ele>192.0</ele><time>2026-04-18T14:37:09.755Z</time></trkpt><trkpt lat="44.3583912" lon="11.3956033"><ele>192.0</ele><time>2026-04-18T14:37:10.755Z</time></trkpt><trkpt lat="44.358363" lon="11.3954658"><ele>192.0</ele><time>2026-04-18T14:37:11.755Z</time></trkpt><trkpt lat="44.3583086" lon="11.3953483"><ele>192.0</ele><time>2026-04-18T14:37:12.755Z</time></trkpt><trkpt lat="44.3582223" lon="11.3952834"><ele>191.5</ele><time>2026-04-18T14:37:13.754Z</time></trkpt><trkpt lat="44.3581321" lon="11.3952711"><ele>191.0</ele><time>2026-04-18T14:37:14.755Z</time></trkpt><trkpt lat="44.3580373" lon="11.3952577"><ele>190.5</ele><time>2026-04-18T14:37:15.754Z</time></trkpt><trkpt lat="44.3579597" lon="11.3951948"><ele>190.0</ele><time>2026-04-18T14:37:16.754Z</time></trkpt><trkpt lat="44.3579188" lon="11.3951021"><ele>189.5</ele><time>2026-04-18T14:37:17.755Z</time></trkpt><trkpt lat="44.3579134" lon="11.3949974"><ele>189.0</ele><time>2026-04-18T14:37:18.755Z</time></trkpt><trkpt lat="44.3579371" lon="11.3948246"><ele>190.75</ele><time>2026-04-18T14:37:19.754Z</time></trkpt><trkpt lat="44.3579712" lon="11.3946535"><ele>192.5</ele><time>2026-04-18T14:37:20.755Z</time></trkpt><trkpt lat="44.3580136" lon="11.3944678"><ele>194.25</ele><time>2026-04-18T14:37:21.755Z</time></trkpt><trkpt lat="44.3580513" lon="11.3942816"><ele>196.0</ele><time>2026-04-18T14:37:22.755Z</time></trkpt><trkpt lat="44.3580833" lon="11.3941181"><ele>204.0</ele><time>2026-04-18T14:37:23.755Z</time></trkpt><trkpt lat="44.3581059" lon="11.3939572"><ele>204.0</ele><time>2026-04-18T14:37:24.755Z</time></trkpt></trkseg></trk></gpx>